DECDR YAYE-YMML
Flight info
| Callsign | DECDR |
|---|---|
| Flight time | 5h 59m |
| Altitude | 19000 |
| Route | AY2WI DCT RUNRU DCT IDK DCT LEC H119 ARBEY |
| Aircraft | DA62/L-SDFGRY/C |
Departure
| Time | 2026-05-04 07:57 |
|---|---|
| Airport | Ayers Rock Connellan Airport (YAYE) |
Arrival
| Time | 2026-05-04 13:57 |
|---|---|
| Airport | Melbourne Airport (YMML) |
| Time | Latitude | Longitude | Altitude | Speed | Heading |
|---|---|---|---|---|---|
| 2026-05-04 07:51 | -25.18969 | 130.97633 | 1625 ft | 0 kts | 262° |
| 2026-05-04 07:55 | -25.18969 | 130.97630 | 1626 ft | 2 kts | 262° |
| 2026-05-04 07:55 | -25.18944 | 130.97631 | 1626 ft | 10 kts | 76° |
| 2026-05-04 07:55 | -25.18937 | 130.97729 | 1627 ft | 20 kts | 41° |
| 2026-05-04 07:55 | -25.18788 | 130.97864 | 1626 ft | 31 kts | 38° |
| 2026-05-04 07:56 | -25.18720 | 130.97880 | 1626 ft | 5 kts | 307° |
| 2026-05-04 07:56 | -25.18556 | 130.97664 | 1630 ft | 68 kts | 308° |
| 2026-05-04 07:56 | -25.18150 | 130.97124 | 1645 ft | 110 kts | 309° |
| 2026-05-04 07:56 | -25.17710 | 130.96363 | 1758 ft | 122 kts | 277° |
| 2026-05-04 07:57 | -25.18063 | 130.95592 | 1932 ft | 123 kts | 202° |
| 2026-05-04 07:57 | -25.18893 | 130.95720 | 2199 ft | 129 kts | 152° |
| 2026-05-04 07:57 | -25.19706 | 130.96226 | 2369 ft | 138 kts | 152° |
| 2026-05-04 07:57 | -25.20559 | 130.96791 | 2479 ft | 147 kts | 148° |
| 2026-05-04 07:58 | -25.21431 | 130.97370 | 2765 ft | 141 kts | 149° |
| 2026-05-04 07:58 | -25.22316 | 130.97970 | 2757 ft | 155 kts | 148° |
| 2026-05-04 07:58 | -25.23248 | 130.98624 | 2800 ft | 161 kts | 147° |
| 2026-05-04 07:58 | -25.24202 | 130.99293 | 2851 ft | 163 kts | 148° |
| 2026-05-04 07:59 | -25.25151 | 130.99971 | 2939 ft | 163 kts | 147° |
| 2026-05-04 07:59 | -25.26115 | 131.00651 | 2958 ft | 165 kts | 148° |
| 2026-05-04 07:59 | -25.27079 | 131.01320 | 2994 ft | 164 kts | 149° |
| 2026-05-04 07:59 | -25.28087 | 131.01865 | 3180 ft | 158 kts | 159° |
| 2026-05-04 08:00 | -25.29143 | 131.02273 | 3230 ft | 163 kts | 160° |
| 2026-05-04 08:00 | -25.30219 | 131.02689 | 3280 ft | 166 kts | 160° |
| 2026-05-04 08:00 | -25.31323 | 131.03112 | 3287 ft | 169 kts | 160° |
| 2026-05-04 08:02 | -25.33074 | 131.02009 | 3404 ft | 176 kts | 55° |
| 2026-05-04 08:02 | -25.33125 | 131.03123 | 3473 ft | 161 kts | 150° |
| 2026-05-04 08:02 | -25.34264 | 131.03496 | 3139 ft | 178 kts | 171° |
| 2026-05-04 08:03 | -25.35421 | 131.03704 | 3460 ft | 152 kts | 170° |
| 2026-05-04 08:03 | -25.36360 | 131.04276 | 3446 ft | 159 kts | 143° |
| 2026-05-04 08:03 | -25.37219 | 131.05051 | 3537 ft | 160 kts | 142° |
| 2026-05-04 08:03 | -25.38013 | 131.05925 | 3605 ft | 164 kts | 126° |
| 2026-05-04 08:04 | -25.38648 | 131.06964 | 3713 ft | 162 kts | 129° |
| 2026-05-04 08:04 | -25.39357 | 131.07920 | 3826 ft | 160 kts | 130° |
| 2026-05-04 08:04 | -25.40057 | 131.08884 | 3943 ft | 161 kts | 130° |
| 2026-05-04 08:04 | -25.40753 | 131.09861 | 4075 ft | 163 kts | 130° |
| 2026-05-04 08:05 | -25.41458 | 131.10846 | 4198 ft | 164 kts | 130° |
| 2026-05-04 08:05 | -25.42168 | 131.11835 | 4321 ft | 164 kts | 130° |
| 2026-05-04 08:05 | -25.42881 | 131.12829 | 4452 ft | 165 kts | 130° |
| 2026-05-04 08:05 | -25.43586 | 131.13827 | 4578 ft | 165 kts | 127° |
| 2026-05-04 08:06 | -25.43963 | 131.15019 | 4704 ft | 168 kts | 105° |
| 2026-05-04 08:06 | -25.44346 | 131.16225 | 4832 ft | 165 kts | 124° |
| 2026-05-04 08:06 | -25.45034 | 131.17245 | 4957 ft | 165 kts | 130° |
| 2026-05-04 08:06 | -25.45738 | 131.18240 | 5124 ft | 161 kts | 129° |
| 2026-05-04 08:08 | -25.50441 | 131.24779 | 6860 ft | 155 kts | 130° |
| 2026-05-04 08:08 | -25.51110 | 131.25709 | 7076 ft | 158 kts | 130° |
| 2026-05-04 08:10 | -25.57078 | 131.34005 | 8150 ft | 180 kts | 131° |
| 2026-05-04 08:11 | -25.57858 | 131.35092 | 8274 ft | 181 kts | 131° |
| 2026-05-04 08:11 | -25.59441 | 131.37293 | 8524 ft | 184 kts | 131° |
| 2026-05-04 08:11 | -25.60239 | 131.38406 | 8656 ft | 184 kts | 130° |
| 2026-05-04 08:12 | -25.61041 | 131.39525 | 8771 ft | 185 kts | 131° |
| 2026-05-04 08:12 | -25.61835 | 131.40632 | 8907 ft | 186 kts | 131° |
| 2026-05-04 08:12 | -25.62644 | 131.41758 | 9033 ft | 187 kts | 131° |
| 2026-05-04 08:12 | -25.63457 | 131.42890 | 9163 ft | 187 kts | 131° |
| 2026-05-04 08:13 | -25.64269 | 131.44023 | 9293 ft | 188 kts | 131° |
| 2026-05-04 08:13 | -25.65084 | 131.45161 | 9421 ft | 188 kts | 131° |
| 2026-05-04 08:13 | -25.65625 | 131.45915 | 9505 ft | 189 kts | 131° |
| 2026-05-04 08:13 | -25.66441 | 131.47055 | 9636 ft | 189 kts | 131° |
| 2026-05-04 08:14 | -25.67261 | 131.48199 | 9769 ft | 190 kts | 131° |
| 2026-05-04 08:14 | -25.68088 | 131.49352 | 9899 ft | 191 kts | 131° |
| 2026-05-04 08:14 | -25.68915 | 131.50508 | 10029 ft | 191 kts | 131° |
| 2026-05-04 08:16 | -25.74759 | 131.58677 | 10857 ft | 195 kts | 131° |
| 2026-05-04 08:16 | -25.75606 | 131.59861 | 10979 ft | 196 kts | 131° |
| 2026-05-04 08:16 | -25.76452 | 131.61046 | 11102 ft | 196 kts | 131° |
| 2026-05-04 08:17 | -25.77300 | 131.62234 | 11226 ft | 197 kts | 131° |
| 2026-05-04 08:17 | -25.78151 | 131.63425 | 11347 ft | 197 kts | 131° |
| 2026-05-04 08:17 | -25.79005 | 131.64620 | 11470 ft | 198 kts | 131° |
| 2026-05-04 08:17 | -25.79863 | 131.65821 | 11590 ft | 198 kts | 131° |
| 2026-05-04 08:19 | -25.85900 | 131.74290 | 12457 ft | 201 kts | 131° |
| 2026-05-04 08:19 | -25.86764 | 131.75504 | 12582 ft | 200 kts | 131° |
| 2026-05-04 08:20 | -25.87629 | 131.76719 | 12707 ft | 200 kts | 132° |
| 2026-05-04 08:20 | -25.88490 | 131.77927 | 12837 ft | 200 kts | 132° |
| 2026-05-04 08:20 | -25.89349 | 131.79134 | 12960 ft | 199 kts | 131° |
| 2026-05-04 08:20 | -25.90209 | 131.80344 | 13088 ft | 199 kts | 132° |
| 2026-05-04 08:21 | -25.91066 | 131.81548 | 13213 ft | 198 kts | 132° |
| 2026-05-04 08:21 | -25.91921 | 131.82751 | 13344 ft | 198 kts | 132° |
| 2026-05-04 08:21 | -25.92774 | 131.83951 | 13477 ft | 198 kts | 132° |
| 2026-05-04 08:21 | -25.93627 | 131.85150 | 13603 ft | 197 kts | 132° |
| 2026-05-04 08:22 | -25.94478 | 131.86347 | 13735 ft | 197 kts | 132° |
| 2026-05-04 08:22 | -25.95317 | 131.87529 | 13863 ft | 197 kts | 132° |
| 2026-05-04 08:24 | -26.01216 | 131.95840 | 14687 ft | 193 kts | 132° |
| 2026-05-04 08:24 | -26.02035 | 131.96998 | 14794 ft | 193 kts | 133° |
| 2026-05-04 08:24 | -26.02867 | 131.98170 | 14919 ft | 192 kts | 133° |
| 2026-05-04 08:24 | -26.03691 | 131.99333 | 15036 ft | 192 kts | 133° |
| 2026-05-04 08:25 | -26.04514 | 132.00495 | 15156 ft | 191 kts | 133° |
| 2026-05-04 08:25 | -26.05335 | 132.01653 | 15272 ft | 190 kts | 133° |
| 2026-05-04 08:25 | -26.06153 | 132.02810 | 15396 ft | 190 kts | 133° |
| 2026-05-04 08:25 | -26.06966 | 132.03959 | 15517 ft | 189 kts | 133° |
| 2026-05-04 08:26 | -26.07778 | 132.05106 | 15637 ft | 188 kts | 133° |
| 2026-05-04 08:27 | -26.13374 | 132.13021 | 16484 ft | 182 kts | 133° |
| 2026-05-04 08:28 | -26.14156 | 132.14128 | 16617 ft | 182 kts | 133° |
| 2026-05-04 08:28 | -26.14929 | 132.15222 | 16739 ft | 182 kts | 133° |
| 2026-05-04 08:28 | -26.15711 | 132.16330 | 16866 ft | 182 kts | 133° |
| 2026-05-04 08:28 | -26.16492 | 132.17435 | 16991 ft | 181 kts | 133° |
| 2026-05-04 08:29 | -26.17269 | 132.18538 | 17110 ft | 180 kts | 133° |
| 2026-05-04 08:29 | -26.18040 | 132.19634 | 17242 ft | 179 kts | 134° |
| 2026-05-04 08:29 | -26.18807 | 132.20721 | 17364 ft | 177 kts | 134° |
| 2026-05-04 08:31 | -26.23997 | 132.28085 | 18262 ft | 168 kts | 134° |
| 2026-05-04 08:33 | -26.28922 | 132.35085 | 19074 ft | 159 kts | 135° |
| 2026-05-04 08:33 | -26.29601 | 132.36052 | 19179 ft | 158 kts | 135° |
| 2026-05-04 08:35 | -26.34768 | 132.43407 | 19210 ft | 181 kts | 134° |
| 2026-05-04 08:35 | -26.35547 | 132.44517 | 19212 ft | 182 kts | 134° |
| 2026-05-04 08:35 | -26.36329 | 132.45632 | 19209 ft | 183 kts | 134° |
| 2026-05-04 08:35 | -26.37112 | 132.46749 | 19212 ft | 183 kts | 134° |
| 2026-05-04 08:37 | -26.41832 | 132.53487 | 19211 ft | 184 kts | 134° |
| 2026-05-04 08:37 | -26.42619 | 132.54610 | 19212 ft | 184 kts | 134° |
| 2026-05-04 08:37 | -26.43404 | 132.55732 | 19210 ft | 184 kts | 134° |
| 2026-05-04 08:38 | -26.44190 | 132.56856 | 19210 ft | 184 kts | 134° |
| 2026-05-04 08:38 | -26.44978 | 132.57983 | 19211 ft | 184 kts | 134° |
| 2026-05-04 08:38 | -26.45765 | 132.59107 | 19209 ft | 184 kts | 134° |
| 2026-05-04 08:40 | -26.51260 | 132.66974 | 19212 ft | 184 kts | 134° |
| 2026-05-04 08:40 | -26.52046 | 132.68099 | 19210 ft | 184 kts | 134° |
| 2026-05-04 08:40 | -26.52829 | 132.69221 | 19209 ft | 184 kts | 134° |
| 2026-05-04 08:41 | -26.53613 | 132.70346 | 19211 ft | 183 kts | 134° |
| 2026-05-04 08:41 | -26.54399 | 132.71472 | 19211 ft | 183 kts | 134° |
| 2026-05-04 08:41 | -26.55182 | 132.72595 | 19210 ft | 183 kts | 134° |
| 2026-05-04 08:41 | -26.55966 | 132.73720 | 19210 ft | 184 kts | 134° |
| 2026-05-04 08:42 | -26.56752 | 132.74848 | 19211 ft | 184 kts | 134° |
| 2026-05-04 08:42 | -26.57536 | 132.75973 | 19210 ft | 184 kts | 134° |
| 2026-05-04 08:42 | -26.58312 | 132.77087 | 19208 ft | 184 kts | 134° |
| 2026-05-04 08:42 | -26.59098 | 132.78215 | 19211 ft | 184 kts | 134° |
| 2026-05-04 08:43 | -26.59881 | 132.79340 | 19211 ft | 184 kts | 134° |
| 2026-05-04 08:43 | -26.60665 | 132.80467 | 19214 ft | 183 kts | 134° |
| 2026-05-04 08:43 | -26.61448 | 132.81591 | 19213 ft | 183 kts | 134° |
| 2026-05-04 08:43 | -26.62230 | 132.82715 | 19212 ft | 183 kts | 134° |
| 2026-05-04 08:44 | -26.63013 | 132.83842 | 19213 ft | 183 kts | 134° |
| 2026-05-04 08:44 | -26.63797 | 132.84968 | 19211 ft | 183 kts | 134° |
| 2026-05-04 08:46 | -26.69264 | 132.92839 | 19214 ft | 183 kts | 134° |
| 2026-05-04 08:46 | -26.70045 | 132.93964 | 19214 ft | 183 kts | 133° |
| 2026-05-04 08:46 | -26.70830 | 132.95097 | 19211 ft | 183 kts | 134° |
| 2026-05-04 08:46 | -26.71613 | 132.96225 | 19211 ft | 183 kts | 134° |
| 2026-05-04 08:47 | -26.72394 | 132.97351 | 19211 ft | 183 kts | 133° |
| 2026-05-04 08:47 | -26.73178 | 132.98482 | 19213 ft | 183 kts | 134° |
| 2026-05-04 08:47 | -26.73958 | 132.99608 | 19211 ft | 183 kts | 134° |
| 2026-05-04 08:47 | -26.74738 | 133.00734 | 19212 ft | 183 kts | 134° |
| 2026-05-04 08:48 | -26.75523 | 133.01866 | 19212 ft | 183 kts | 134° |
| 2026-05-04 08:48 | -26.76296 | 133.02983 | 19212 ft | 184 kts | 134° |
| 2026-05-04 08:48 | -26.77078 | 133.04111 | 19213 ft | 184 kts | 134° |
| 2026-05-04 08:48 | -26.77862 | 133.05244 | 19211 ft | 184 kts | 133° |
| 2026-05-04 08:49 | -26.78646 | 133.06378 | 19214 ft | 184 kts | 133° |
| 2026-05-04 08:50 | -26.83340 | 133.13166 | 19215 ft | 183 kts | 133° |
| 2026-05-04 08:50 | -26.84121 | 133.14298 | 19217 ft | 183 kts | 133° |
| 2026-05-04 08:51 | -26.84899 | 133.15424 | 19218 ft | 183 kts | 133° |
| 2026-05-04 08:51 | -26.85680 | 133.16555 | 19215 ft | 183 kts | 133° |
| 2026-05-04 08:51 | -26.86450 | 133.17670 | 19216 ft | 183 kts | 133° |
| 2026-05-04 08:51 | -26.87228 | 133.18798 | 19217 ft | 183 kts | 133° |
| 2026-05-04 08:52 | -26.88011 | 133.19931 | 19214 ft | 183 kts | 133° |
| 2026-05-04 08:52 | -26.88791 | 133.21062 | 19214 ft | 183 kts | 133° |
| 2026-05-04 08:52 | -26.89570 | 133.22194 | 19214 ft | 183 kts | 133° |
| 2026-05-04 08:52 | -26.90350 | 133.23325 | 19213 ft | 183 kts | 133° |
| 2026-05-04 08:53 | -26.91129 | 133.24454 | 19212 ft | 183 kts | 133° |
| 2026-05-04 08:54 | -26.96496 | 133.32249 | 19213 ft | 183 kts | 133° |
| 2026-05-04 08:55 | -26.97304 | 133.33338 | 19212 ft | 181 kts | 137° |
| 2026-05-04 08:55 | -26.98120 | 133.34414 | 19212 ft | 182 kts | 136° |
| 2026-05-04 08:55 | -26.98932 | 133.35504 | 19212 ft | 182 kts | 136° |
| 2026-05-04 08:55 | -26.99746 | 133.36588 | 19211 ft | 182 kts | 136° |
| 2026-05-04 08:57 | -27.05447 | 133.44165 | 19216 ft | 182 kts | 136° |
| 2026-05-04 09:01 | -27.16589 | 133.59017 | 19215 ft | 182 kts | 136° |
| 2026-05-04 09:01 | -27.17400 | 133.60101 | 19214 ft | 182 kts | 136° |
| 2026-05-04 09:01 | -27.18214 | 133.61188 | 19210 ft | 181 kts | 136° |
| 2026-05-04 09:01 | -27.19021 | 133.62267 | 19211 ft | 181 kts | 136° |
| 2026-05-04 09:02 | -27.19837 | 133.63357 | 19209 ft | 181 kts | 136° |
| 2026-05-04 09:02 | -27.20650 | 133.64443 | 19209 ft | 181 kts | 136° |
| 2026-05-04 09:02 | -27.21463 | 133.65530 | 19212 ft | 181 kts | 136° |
| 2026-05-04 09:02 | -27.22275 | 133.66617 | 19211 ft | 181 kts | 136° |
| 2026-05-04 09:03 | -27.23085 | 133.67700 | 19215 ft | 181 kts | 136° |
| 2026-05-04 09:03 | -27.23886 | 133.68772 | 19214 ft | 181 kts | 136° |
| 2026-05-04 09:03 | -27.24698 | 133.69859 | 19210 ft | 181 kts | 136° |
| 2026-05-04 09:03 | -27.25511 | 133.70947 | 19214 ft | 181 kts | 136° |
| 2026-05-04 09:04 | -27.26325 | 133.72036 | 19212 ft | 181 kts | 136° |
| 2026-05-04 09:04 | -27.27137 | 133.73125 | 19214 ft | 181 kts | 136° |
| 2026-05-04 09:04 | -27.27950 | 133.74213 | 19215 ft | 181 kts | 136° |
| 2026-05-04 09:04 | -27.28759 | 133.75299 | 19211 ft | 181 kts | 136° |
| 2026-05-04 09:05 | -27.29568 | 133.76382 | 19210 ft | 181 kts | 135° |
| 2026-05-04 09:05 | -27.30380 | 133.77470 | 19210 ft | 181 kts | 135° |
| 2026-05-04 09:05 | -27.31190 | 133.78557 | 19211 ft | 181 kts | 135° |
| 2026-05-04 09:05 | -27.31990 | 133.79631 | 19208 ft | 181 kts | 135° |
| 2026-05-04 09:06 | -27.32802 | 133.80720 | 19210 ft | 181 kts | 135° |
| 2026-05-04 09:07 | -27.38474 | 133.88338 | 19211 ft | 181 kts | 135° |
| 2026-05-04 09:08 | -27.39286 | 133.89429 | 19210 ft | 181 kts | 135° |
| 2026-05-04 09:08 | -27.40087 | 133.90506 | 19210 ft | 182 kts | 135° |
| 2026-05-04 09:08 | -27.40898 | 133.91598 | 19211 ft | 182 kts | 135° |
| 2026-05-04 09:08 | -27.41709 | 133.92689 | 19212 ft | 182 kts | 135° |
| 2026-05-04 09:09 | -27.42522 | 133.93782 | 19213 ft | 181 kts | 135° |
| 2026-05-04 09:09 | -27.43329 | 133.94870 | 19211 ft | 181 kts | 135° |
| 2026-05-04 09:09 | -27.44138 | 133.95958 | 19211 ft | 181 kts | 135° |
| 2026-05-04 09:09 | -27.44948 | 133.97049 | 19214 ft | 181 kts | 135° |
| 2026-05-04 09:10 | -27.45756 | 133.98138 | 19212 ft | 181 kts | 135° |
| 2026-05-04 09:10 | -27.46563 | 133.99225 | 19210 ft | 181 kts | 135° |
| 2026-05-04 09:10 | -27.47360 | 134.00299 | 19214 ft | 181 kts | 135° |
| 2026-05-04 09:10 | -27.48167 | 134.01387 | 19211 ft | 181 kts | 135° |
| 2026-05-04 09:11 | -27.48973 | 134.02475 | 19214 ft | 181 kts | 135° |
| 2026-05-04 09:11 | -27.49782 | 134.03564 | 19213 ft | 181 kts | 135° |
| 2026-05-04 09:11 | -27.50588 | 134.04653 | 19211 ft | 181 kts | 135° |
| 2026-05-04 09:11 | -27.51395 | 134.05742 | 19213 ft | 181 kts | 135° |
| 2026-05-04 09:12 | -27.52204 | 134.06834 | 19209 ft | 181 kts | 135° |
| 2026-05-04 09:12 | -27.53008 | 134.07920 | 19211 ft | 181 kts | 135° |
| 2026-05-04 09:14 | -27.58638 | 134.15528 | 19213 ft | 181 kts | 135° |
| 2026-05-04 09:14 | -27.59440 | 134.16613 | 19212 ft | 181 kts | 135° |
| 2026-05-04 09:14 | -27.60245 | 134.17703 | 19213 ft | 181 kts | 135° |
| 2026-05-04 09:14 | -27.61052 | 134.18795 | 19213 ft | 181 kts | 135° |
| 2026-05-04 09:15 | -27.61859 | 134.19887 | 19214 ft | 181 kts | 135° |
| 2026-05-04 09:15 | -27.62661 | 134.20974 | 19215 ft | 181 kts | 135° |
| 2026-05-04 09:15 | -27.63456 | 134.22051 | 19215 ft | 181 kts | 135° |
| 2026-05-04 09:15 | -27.64260 | 134.23139 | 19215 ft | 180 kts | 135° |
| 2026-05-04 09:17 | -27.70683 | 134.31853 | 19214 ft | 180 kts | 135° |
| 2026-05-04 09:18 | -27.71485 | 134.32943 | 19213 ft | 180 kts | 135° |
| 2026-05-04 09:18 | -27.72286 | 134.34031 | 19211 ft | 180 kts | 135° |
| 2026-05-04 09:18 | -27.73087 | 134.35120 | 19213 ft | 180 kts | 135° |
| 2026-05-04 09:18 | -27.73888 | 134.36207 | 19211 ft | 180 kts | 135° |
| 2026-05-04 09:19 | -27.74678 | 134.37280 | 19212 ft | 180 kts | 135° |
| 2026-05-04 09:19 | -27.75479 | 134.38370 | 19212 ft | 180 kts | 135° |
| 2026-05-04 09:19 | -27.76278 | 134.39457 | 19211 ft | 180 kts | 135° |
| 2026-05-04 09:19 | -27.77082 | 134.40551 | 19214 ft | 180 kts | 135° |
| 2026-05-04 09:20 | -27.77884 | 134.41643 | 19216 ft | 180 kts | 135° |
| 2026-05-04 09:20 | -27.78685 | 134.42732 | 19215 ft | 180 kts | 135° |
| 2026-05-04 09:20 | -27.79486 | 134.43822 | 19212 ft | 180 kts | 135° |
| 2026-05-04 09:20 | -27.80290 | 134.44917 | 19215 ft | 180 kts | 135° |
| 2026-05-04 09:21 | -27.81091 | 134.46009 | 19213 ft | 180 kts | 135° |
| 2026-05-04 09:21 | -27.81892 | 134.47101 | 19213 ft | 180 kts | 134° |
| 2026-05-04 09:21 | -27.82692 | 134.48190 | 19212 ft | 181 kts | 135° |
| 2026-05-04 09:21 | -27.83496 | 134.49286 | 19210 ft | 181 kts | 134° |
| 2026-05-04 09:22 | -27.84286 | 134.50364 | 19212 ft | 181 kts | 135° |
| 2026-05-04 09:22 | -27.85087 | 134.51457 | 19210 ft | 181 kts | 135° |
| 2026-05-04 09:22 | -27.85888 | 134.52549 | 19209 ft | 181 kts | 134° |
| 2026-05-04 09:22 | -27.86691 | 134.53644 | 19212 ft | 180 kts | 135° |
| 2026-05-04 09:23 | -27.87492 | 134.54737 | 19212 ft | 181 kts | 134° |
| 2026-05-04 09:23 | -27.88294 | 134.55833 | 19213 ft | 181 kts | 134° |
| 2026-05-04 09:23 | -27.89094 | 134.56926 | 19213 ft | 181 kts | 134° |
| 2026-05-04 09:23 | -27.89899 | 134.58025 | 19214 ft | 181 kts | 135° |
| 2026-05-04 09:25 | -27.95498 | 134.65681 | 19215 ft | 180 kts | 134° |
| 2026-05-04 09:25 | -27.96296 | 134.66774 | 19211 ft | 180 kts | 134° |
| 2026-05-04 09:26 | -27.97094 | 134.67867 | 19212 ft | 180 kts | 134° |
| 2026-05-04 09:26 | -27.97892 | 134.68960 | 19209 ft | 180 kts | 134° |
| 2026-05-04 09:26 | -27.98690 | 134.70052 | 19209 ft | 180 kts | 134° |
| 2026-05-04 09:26 | -27.99487 | 134.71144 | 19209 ft | 180 kts | 134° |
| 2026-05-04 09:27 | -28.00283 | 134.72236 | 19213 ft | 180 kts | 134° |
| 2026-05-04 09:27 | -28.01082 | 134.73330 | 19209 ft | 180 kts | 134° |
| 2026-05-04 09:27 | -28.01880 | 134.74426 | 19208 ft | 180 kts | 134° |
| 2026-05-04 09:27 | -28.02674 | 134.75515 | 19211 ft | 180 kts | 134° |
| 2026-05-04 09:28 | -28.03472 | 134.76609 | 19217 ft | 180 kts | 134° |
| 2026-05-04 09:28 | -28.04266 | 134.77698 | 19210 ft | 180 kts | 134° |
| 2026-05-04 09:28 | -28.05060 | 134.78789 | 19211 ft | 180 kts | 134° |
| 2026-05-04 09:28 | -28.05845 | 134.79866 | 19212 ft | 180 kts | 134° |
| 2026-05-04 09:29 | -28.06642 | 134.80959 | 19212 ft | 180 kts | 134° |
| 2026-05-04 09:29 | -28.07436 | 134.82052 | 19216 ft | 180 kts | 134° |
| 2026-05-04 09:29 | -28.08232 | 134.83144 | 19214 ft | 180 kts | 134° |
| 2026-05-04 09:29 | -28.09028 | 134.84238 | 19211 ft | 180 kts | 134° |
| 2026-05-04 09:30 | -28.09823 | 134.85333 | 19212 ft | 180 kts | 134° |
| 2026-05-04 09:30 | -28.10620 | 134.86428 | 19212 ft | 180 kts | 134° |
| 2026-05-04 09:30 | -28.11416 | 134.87523 | 19219 ft | 180 kts | 134° |
| 2026-05-04 09:30 | -28.12213 | 134.88620 | 19212 ft | 180 kts | 134° |
| 2026-05-04 09:31 | -28.13008 | 134.89713 | 19212 ft | 180 kts | 134° |
| 2026-05-04 09:31 | -28.13803 | 134.90808 | 19211 ft | 180 kts | 134° |
| 2026-05-04 09:31 | -28.14598 | 134.91903 | 19218 ft | 180 kts | 134° |
| 2026-05-04 09:31 | -28.15393 | 134.92998 | 19209 ft | 180 kts | 134° |
| 2026-05-04 09:32 | -28.16191 | 134.94096 | 19209 ft | 180 kts | 134° |
| 2026-05-04 09:32 | -28.16985 | 134.95192 | 19212 ft | 180 kts | 134° |
| 2026-05-04 09:34 | -28.22536 | 135.02848 | 19208 ft | 180 kts | 134° |
| 2026-05-04 09:34 | -28.23327 | 135.03941 | 19209 ft | 180 kts | 134° |
| 2026-05-04 09:34 | -28.24123 | 135.05039 | 19210 ft | 180 kts | 134° |
| 2026-05-04 09:34 | -28.24915 | 135.06134 | 19210 ft | 180 kts | 134° |
| 2026-05-04 09:35 | -28.25709 | 135.07231 | 19215 ft | 180 kts | 134° |
| 2026-05-04 09:35 | -28.26501 | 135.08326 | 19212 ft | 180 kts | 134° |
| 2026-05-04 09:35 | -28.27297 | 135.09425 | 19210 ft | 180 kts | 134° |
| 2026-05-04 09:35 | -28.28090 | 135.10523 | 19210 ft | 180 kts | 134° |
| 2026-05-04 09:37 | -28.33639 | 135.18205 | 19210 ft | 180 kts | 134° |
| 2026-05-04 09:37 | -28.34431 | 135.19303 | 19213 ft | 180 kts | 134° |
| 2026-05-04 09:38 | -28.35214 | 135.20389 | 19210 ft | 180 kts | 134° |
| 2026-05-04 09:38 | -28.36006 | 135.21487 | 19217 ft | 180 kts | 134° |
| 2026-05-04 09:38 | -28.36799 | 135.22585 | 19209 ft | 180 kts | 134° |
| 2026-05-04 09:38 | -28.37592 | 135.23686 | 19210 ft | 180 kts | 134° |
| 2026-05-04 09:39 | -28.38383 | 135.24784 | 19210 ft | 180 kts | 134° |
| 2026-05-04 09:39 | -28.39176 | 135.25885 | 19212 ft | 180 kts | 134° |
| 2026-05-04 09:39 | -28.39965 | 135.26980 | 19211 ft | 179 kts | 134° |
| 2026-05-04 09:39 | -28.40756 | 135.28078 | 19213 ft | 179 kts | 134° |
| 2026-05-04 09:40 | -28.41547 | 135.29177 | 19212 ft | 179 kts | 134° |
| 2026-05-04 09:40 | -28.42338 | 135.30277 | 19208 ft | 179 kts | 134° |
| 2026-05-04 09:40 | -28.43126 | 135.31372 | 19210 ft | 179 kts | 134° |
| 2026-05-04 09:40 | -28.43914 | 135.32468 | 19207 ft | 179 kts | 134° |
| 2026-05-04 09:41 | -28.44703 | 135.33564 | 19211 ft | 179 kts | 134° |
| 2026-05-04 09:42 | -28.50209 | 135.41229 | 19210 ft | 179 kts | 134° |
| 2026-05-04 09:43 | -28.50996 | 135.42326 | 19212 ft | 179 kts | 134° |
| 2026-05-04 09:43 | -28.51784 | 135.43424 | 19213 ft | 179 kts | 134° |
| 2026-05-04 09:43 | -28.52571 | 135.44520 | 19213 ft | 179 kts | 134° |
| 2026-05-04 09:43 | -28.53358 | 135.45618 | 19214 ft | 179 kts | 134° |
| 2026-05-04 09:44 | -28.54143 | 135.46714 | 19216 ft | 179 kts | 134° |
| 2026-05-04 09:44 | -28.54931 | 135.47813 | 19211 ft | 179 kts | 134° |
| 2026-05-04 09:44 | -28.55717 | 135.48909 | 19212 ft | 179 kts | 134° |
| 2026-05-04 09:46 | -28.61220 | 135.56598 | 19219 ft | 179 kts | 134° |
| 2026-05-04 09:46 | -28.61739 | 135.57323 | 19214 ft | 179 kts | 134° |
| 2026-05-04 09:46 | -28.62523 | 135.58420 | 19214 ft | 179 kts | 134° |
| 2026-05-04 09:47 | -28.63565 | 135.59878 | 19213 ft | 179 kts | 134° |
| 2026-05-04 09:47 | -28.64095 | 135.60620 | 19216 ft | 179 kts | 134° |
| 2026-05-04 09:49 | -28.69577 | 135.68300 | 19214 ft | 179 kts | 133° |
| 2026-05-04 09:49 | -28.70358 | 135.69396 | 19212 ft | 179 kts | 133° |
| 2026-05-04 09:49 | -28.71132 | 135.70482 | 19212 ft | 179 kts | 133° |
| 2026-05-04 09:51 | -28.75624 | 135.76789 | 19212 ft | 179 kts | 133° |
| 2026-05-04 09:51 | -28.76409 | 135.77892 | 19211 ft | 179 kts | 133° |
| 2026-05-04 09:51 | -28.77192 | 135.78992 | 19210 ft | 179 kts | 133° |
| 2026-05-04 09:51 | -28.77973 | 135.80090 | 19212 ft | 179 kts | 133° |
| 2026-05-04 09:52 | -28.78757 | 135.81194 | 19211 ft | 179 kts | 133° |
| 2026-05-04 09:52 | -28.79531 | 135.82282 | 19212 ft | 179 kts | 133° |
| 2026-05-04 09:52 | -28.80315 | 135.83384 | 19212 ft | 179 kts | 133° |
| 2026-05-04 09:52 | -28.81097 | 135.84486 | 19211 ft | 179 kts | 133° |
| 2026-05-04 09:53 | -28.81879 | 135.85587 | 19212 ft | 179 kts | 133° |
| 2026-05-04 09:53 | -28.82661 | 135.86690 | 19210 ft | 179 kts | 133° |
| 2026-05-04 09:53 | -28.83445 | 135.87792 | 19211 ft | 179 kts | 133° |
| 2026-05-04 09:53 | -28.84225 | 135.88891 | 19212 ft | 179 kts | 133° |
| 2026-05-04 09:54 | -28.85006 | 135.89993 | 19210 ft | 179 kts | 133° |
| 2026-05-04 09:54 | -28.85788 | 135.91096 | 19213 ft | 179 kts | 133° |
| 2026-05-04 09:54 | -28.86570 | 135.92198 | 19213 ft | 179 kts | 133° |
| 2026-05-04 09:54 | -28.87354 | 135.93305 | 19213 ft | 178 kts | 133° |
| 2026-05-04 09:55 | -28.88135 | 135.94407 | 19212 ft | 178 kts | 133° |
| 2026-05-04 09:55 | -28.88916 | 135.95507 | 19213 ft | 178 kts | 133° |
| 2026-05-04 09:55 | -28.89687 | 135.96596 | 19209 ft | 178 kts | 133° |
| 2026-05-04 09:55 | -28.90469 | 135.97700 | 19210 ft | 178 kts | 133° |
| 2026-05-04 09:56 | -28.91251 | 135.98805 | 19212 ft | 179 kts | 133° |
| 2026-05-04 09:56 | -28.92031 | 135.99907 | 19214 ft | 179 kts | 133° |
| 2026-05-04 09:56 | -28.92814 | 136.01013 | 19214 ft | 179 kts | 133° |
| 2026-05-04 09:56 | -28.93595 | 136.02118 | 19213 ft | 179 kts | 133° |
| 2026-05-04 09:57 | -28.94366 | 136.03207 | 19210 ft | 179 kts | 133° |
| 2026-05-04 09:57 | -28.95146 | 136.04311 | 19212 ft | 179 kts | 133° |
| 2026-05-04 09:57 | -28.95926 | 136.05415 | 19214 ft | 178 kts | 133° |
| 2026-05-04 09:57 | -28.96705 | 136.06517 | 19214 ft | 178 kts | 133° |
| 2026-05-04 09:58 | -28.97485 | 136.07620 | 19214 ft | 178 kts | 133° |
| 2026-05-04 09:58 | -28.98264 | 136.08723 | 19212 ft | 178 kts | 133° |
| 2026-05-04 09:58 | -28.99042 | 136.09825 | 19211 ft | 178 kts | 133° |
| 2026-05-04 10:00 | -29.04489 | 136.17547 | 19211 ft | 178 kts | 133° |
| 2026-05-04 10:00 | -29.05265 | 136.18649 | 19209 ft | 178 kts | 133° |
| 2026-05-04 10:02 | -29.10696 | 136.26365 | 19207 ft | 178 kts | 133° |
| 2026-05-04 10:04 | -29.16130 | 136.34100 | 19205 ft | 179 kts | 133° |
| 2026-05-04 10:04 | -29.16911 | 136.35212 | 19210 ft | 179 kts | 133° |
| 2026-05-04 10:04 | -29.17690 | 136.36322 | 19210 ft | 179 kts | 133° |
| 2026-05-04 10:04 | -29.18470 | 136.37433 | 19207 ft | 179 kts | 133° |
| 2026-05-04 10:05 | -29.19251 | 136.38548 | 19208 ft | 179 kts | 133° |
| 2026-05-04 10:05 | -29.20032 | 136.39662 | 19206 ft | 179 kts | 133° |
| 2026-05-04 10:05 | -29.20813 | 136.40775 | 19207 ft | 179 kts | 133° |
| 2026-05-04 10:05 | -29.21594 | 136.41891 | 19209 ft | 179 kts | 133° |
| 2026-05-04 10:06 | -29.22374 | 136.43005 | 19206 ft | 180 kts | 133° |
| 2026-05-04 10:06 | -29.23156 | 136.44122 | 19208 ft | 180 kts | 133° |
| 2026-05-04 10:06 | -29.23931 | 136.45227 | 19206 ft | 180 kts | 133° |
| 2026-05-04 10:08 | -29.28632 | 136.51949 | 19211 ft | 180 kts | 133° |
| 2026-05-04 10:08 | -29.29417 | 136.53073 | 19210 ft | 180 kts | 133° |
| 2026-05-04 10:08 | -29.30201 | 136.54195 | 19211 ft | 180 kts | 133° |
| 2026-05-04 10:08 | -29.30986 | 136.55319 | 19209 ft | 181 kts | 133° |
| 2026-05-04 10:09 | -29.31771 | 136.56443 | 19207 ft | 181 kts | 133° |
| 2026-05-04 10:09 | -29.32557 | 136.57570 | 19209 ft | 181 kts | 133° |
| 2026-05-04 10:09 | -29.33342 | 136.58695 | 19209 ft | 181 kts | 133° |
| 2026-05-04 10:09 | -29.34128 | 136.59820 | 19209 ft | 181 kts | 133° |
| 2026-05-04 10:10 | -29.34914 | 136.60949 | 19208 ft | 181 kts | 133° |
| 2026-05-04 10:10 | -29.35693 | 136.62066 | 19207 ft | 181 kts | 133° |
| 2026-05-04 10:10 | -29.36483 | 136.63199 | 19208 ft | 181 kts | 133° |
| 2026-05-04 10:10 | -29.37271 | 136.64330 | 19208 ft | 181 kts | 133° |
| 2026-05-04 10:11 | -29.38058 | 136.65459 | 19208 ft | 182 kts | 133° |
| 2026-05-04 10:11 | -29.38848 | 136.66594 | 19208 ft | 182 kts | 133° |
| 2026-05-04 10:11 | -29.39637 | 136.67727 | 19210 ft | 182 kts | 133° |
| 2026-05-04 10:11 | -29.40425 | 136.68858 | 19207 ft | 182 kts | 133° |
| 2026-05-04 10:12 | -29.41216 | 136.69995 | 19210 ft | 182 kts | 133° |
| 2026-05-04 10:12 | -29.42005 | 136.71130 | 19209 ft | 182 kts | 133° |
| 2026-05-04 10:12 | -29.42797 | 136.72268 | 19206 ft | 182 kts | 133° |
| 2026-05-04 10:12 | -29.43587 | 136.73404 | 19208 ft | 182 kts | 133° |
| 2026-05-04 10:13 | -29.44377 | 136.74542 | 19207 ft | 182 kts | 133° |
| 2026-05-04 10:13 | -29.45158 | 136.75666 | 19208 ft | 183 kts | 133° |
| 2026-05-04 10:13 | -29.45950 | 136.76804 | 19211 ft | 183 kts | 133° |
| 2026-05-04 10:13 | -29.46741 | 136.77944 | 19208 ft | 183 kts | 133° |
| 2026-05-04 10:14 | -29.47534 | 136.79087 | 19210 ft | 183 kts | 133° |
| 2026-05-04 10:14 | -29.48328 | 136.80229 | 19204 ft | 183 kts | 133° |
| 2026-05-04 10:16 | -29.53887 | 136.88248 | 19207 ft | 184 kts | 134° |
| 2026-05-04 10:16 | -29.54685 | 136.89399 | 19206 ft | 184 kts | 134° |
| 2026-05-04 10:16 | -29.55472 | 136.90535 | 19207 ft | 184 kts | 134° |
| 2026-05-04 10:16 | -29.56268 | 136.91686 | 19205 ft | 183 kts | 134° |
| 2026-05-04 10:17 | -29.57064 | 136.92833 | 19207 ft | 184 kts | 133° |
| 2026-05-04 10:17 | -29.57858 | 136.93985 | 19209 ft | 184 kts | 134° |
| 2026-05-04 10:19 | -29.63442 | 137.02064 | 19206 ft | 185 kts | 134° |
| 2026-05-04 10:19 | -29.64244 | 137.03227 | 19204 ft | 185 kts | 134° |
| 2026-05-04 10:19 | -29.65046 | 137.04388 | 19204 ft | 185 kts | 134° |
| 2026-05-04 10:19 | -29.65846 | 137.05547 | 19204 ft | 185 kts | 134° |
| 2026-05-04 10:20 | -29.66648 | 137.06710 | 19204 ft | 185 kts | 134° |
| 2026-05-04 10:20 | -29.67441 | 137.07860 | 19205 ft | 186 kts | 134° |
| 2026-05-04 10:20 | -29.68247 | 137.09029 | 19203 ft | 186 kts | 134° |
| 2026-05-04 10:20 | -29.69048 | 137.10193 | 19205 ft | 186 kts | 134° |
| 2026-05-04 10:21 | -29.69852 | 137.11360 | 19208 ft | 186 kts | 134° |
| 2026-05-04 10:21 | -29.70656 | 137.12527 | 19203 ft | 186 kts | 134° |
| 2026-05-04 10:21 | -29.71461 | 137.13696 | 19205 ft | 187 kts | 134° |
| 2026-05-04 10:21 | -29.72269 | 137.14870 | 19202 ft | 187 kts | 134° |
| 2026-05-04 10:22 | -29.73886 | 137.17221 | 19202 ft | 187 kts | 134° |
| 2026-05-04 10:22 | -29.74694 | 137.18397 | 19205 ft | 187 kts | 134° |
| 2026-05-04 10:22 | -29.75493 | 137.19558 | 19206 ft | 187 kts | 134° |
| 2026-05-04 10:23 | -29.76301 | 137.20734 | 19205 ft | 187 kts | 134° |
| 2026-05-04 10:23 | -29.77109 | 137.21910 | 19206 ft | 187 kts | 134° |
| 2026-05-04 10:25 | -29.82791 | 137.30189 | 19204 ft | 188 kts | 134° |
| 2026-05-04 10:25 | -29.83593 | 137.31359 | 19205 ft | 188 kts | 134° |
| 2026-05-04 10:25 | -29.84406 | 137.32545 | 19205 ft | 189 kts | 134° |
| 2026-05-04 10:25 | -29.85219 | 137.33732 | 19206 ft | 189 kts | 134° |
| 2026-05-04 10:26 | -29.86032 | 137.34919 | 19204 ft | 189 kts | 134° |
| 2026-05-04 10:26 | -29.86847 | 137.36109 | 19204 ft | 189 kts | 134° |
| 2026-05-04 10:26 | -29.87662 | 137.37300 | 19206 ft | 189 kts | 134° |
| 2026-05-04 10:26 | -29.88478 | 137.38492 | 19207 ft | 190 kts | 134° |
| 2026-05-04 10:27 | -29.89294 | 137.39686 | 19205 ft | 190 kts | 134° |
| 2026-05-04 10:27 | -29.90112 | 137.40882 | 19205 ft | 190 kts | 134° |
| 2026-05-04 10:27 | -29.90932 | 137.42081 | 19205 ft | 190 kts | 134° |
| 2026-05-04 10:27 | -29.91752 | 137.43281 | 19203 ft | 190 kts | 134° |
| 2026-05-04 10:28 | -29.92571 | 137.44481 | 19204 ft | 190 kts | 134° |
| 2026-05-04 10:28 | -29.93393 | 137.45683 | 19205 ft | 190 kts | 134° |
| 2026-05-04 10:28 | -29.94215 | 137.46886 | 19206 ft | 191 kts | 134° |
| 2026-05-04 10:28 | -29.95025 | 137.48073 | 19206 ft | 191 kts | 134° |
| 2026-05-04 10:29 | -29.95848 | 137.49279 | 19206 ft | 191 kts | 134° |
| 2026-05-04 10:29 | -29.96671 | 137.50486 | 19208 ft | 191 kts | 134° |
| 2026-05-04 10:29 | -29.97495 | 137.51693 | 19209 ft | 192 kts | 134° |
| 2026-05-04 10:29 | -29.98321 | 137.52905 | 19206 ft | 192 kts | 134° |
| 2026-05-04 10:30 | -29.99149 | 137.54120 | 19205 ft | 193 kts | 134° |
| 2026-05-04 10:30 | -29.99979 | 137.55337 | 19204 ft | 193 kts | 134° |
| 2026-05-04 10:30 | -30.00805 | 137.56550 | 19208 ft | 193 kts | 134° |
| 2026-05-04 10:30 | -30.01635 | 137.57769 | 19208 ft | 193 kts | 134° |
| 2026-05-04 10:31 | -30.02463 | 137.58986 | 19208 ft | 193 kts | 134° |
| 2026-05-04 10:31 | -30.03296 | 137.60208 | 19203 ft | 193 kts | 134° |
| 2026-05-04 10:32 | -30.08290 | 137.67554 | 19205 ft | 194 kts | 134° |
| 2026-05-04 10:33 | -30.09125 | 137.68784 | 19206 ft | 195 kts | 134° |
| 2026-05-04 10:33 | -30.09965 | 137.70020 | 19205 ft | 195 kts | 134° |
| 2026-05-04 10:33 | -30.10803 | 137.71255 | 19207 ft | 195 kts | 134° |
| 2026-05-04 10:33 | -30.11357 | 137.72072 | 19205 ft | 195 kts | 134° |
| 2026-05-04 10:34 | -30.12199 | 137.73314 | 19211 ft | 196 kts | 134° |
| 2026-05-04 10:34 | -30.13312 | 137.74954 | 19209 ft | 196 kts | 134° |
| 2026-05-04 10:34 | -30.13881 | 137.75793 | 19208 ft | 196 kts | 134° |
| 2026-05-04 10:34 | -30.14721 | 137.77032 | 19209 ft | 196 kts | 134° |
| 2026-05-04 10:35 | -30.15565 | 137.78278 | 19205 ft | 197 kts | 134° |
| 2026-05-04 10:35 | -30.16410 | 137.79526 | 19205 ft | 197 kts | 134° |
| 2026-05-04 10:35 | -30.17256 | 137.80775 | 19203 ft | 197 kts | 134° |
| 2026-05-04 10:35 | -30.18093 | 137.82012 | 19205 ft | 198 kts | 134° |
| 2026-05-04 10:36 | -30.18941 | 137.83266 | 19210 ft | 198 kts | 134° |
| 2026-05-04 10:36 | -30.19792 | 137.84523 | 19212 ft | 198 kts | 134° |
| 2026-05-04 10:36 | -30.20640 | 137.85777 | 19212 ft | 198 kts | 134° |
| 2026-05-04 10:36 | -30.21489 | 137.87033 | 19208 ft | 198 kts | 134° |
| 2026-05-04 10:37 | -30.22340 | 137.88292 | 19211 ft | 199 kts | 134° |
| 2026-05-04 10:37 | -30.23194 | 137.89556 | 19207 ft | 199 kts | 134° |
| 2026-05-04 10:37 | -30.24050 | 137.90824 | 19209 ft | 200 kts | 134° |
| 2026-05-04 10:37 | -30.24905 | 137.92089 | 19210 ft | 200 kts | 134° |
| 2026-05-04 10:39 | -30.30046 | 137.99711 | 19210 ft | 202 kts | 134° |
| 2026-05-04 10:39 | -30.30909 | 138.00993 | 19207 ft | 202 kts | 134° |
| 2026-05-04 10:39 | -30.31772 | 138.02275 | 19212 ft | 202 kts | 133° |
| 2026-05-04 10:40 | -30.32636 | 138.03558 | 19213 ft | 202 kts | 134° |
| 2026-05-04 10:40 | -30.33501 | 138.04843 | 19212 ft | 202 kts | 133° |
| 2026-05-04 10:40 | -30.34367 | 138.06130 | 19211 ft | 203 kts | 133° |
| 2026-05-04 10:40 | -30.35235 | 138.07420 | 19211 ft | 203 kts | 133° |
| 2026-05-04 10:41 | -30.36091 | 138.08692 | 19210 ft | 203 kts | 133° |
| 2026-05-04 10:41 | -30.36961 | 138.09988 | 19211 ft | 204 kts | 133° |
| 2026-05-04 10:41 | -30.37832 | 138.11282 | 19212 ft | 204 kts | 133° |
| 2026-05-04 10:41 | -30.38703 | 138.12580 | 19211 ft | 204 kts | 133° |
| 2026-05-04 10:42 | -30.39575 | 138.13879 | 19209 ft | 205 kts | 133° |
| 2026-05-04 10:42 | -30.40452 | 138.15184 | 19209 ft | 205 kts | 133° |
| 2026-05-04 10:42 | -30.41328 | 138.16489 | 19208 ft | 205 kts | 133° |
| 2026-05-04 10:42 | -30.42207 | 138.17800 | 19210 ft | 206 kts | 133° |
| 2026-05-04 10:43 | -30.43084 | 138.19108 | 19212 ft | 206 kts | 133° |
| 2026-05-04 10:44 | -30.49293 | 138.28377 | 19213 ft | 210 kts | 133° |
| 2026-05-04 10:45 | -30.50183 | 138.29710 | 19211 ft | 209 kts | 133° |
| 2026-05-04 10:45 | -30.51071 | 138.31038 | 19211 ft | 208 kts | 133° |
| 2026-05-04 10:45 | -30.51945 | 138.32343 | 19211 ft | 208 kts | 133° |
| 2026-05-04 10:45 | -30.52831 | 138.33670 | 19211 ft | 208 kts | 133° |
| 2026-05-04 10:46 | -30.53720 | 138.35001 | 19215 ft | 209 kts | 133° |
| 2026-05-04 10:46 | -30.54612 | 138.36338 | 19214 ft | 209 kts | 133° |
| 2026-05-04 10:46 | -30.55504 | 138.37673 | 19210 ft | 209 kts | 133° |
| 2026-05-04 10:46 | -30.56384 | 138.38991 | 19214 ft | 209 kts | 133° |
| 2026-05-04 10:47 | -30.57276 | 138.40329 | 19215 ft | 210 kts | 133° |
| 2026-05-04 10:47 | -30.58171 | 138.41671 | 19217 ft | 210 kts | 133° |
| 2026-05-04 10:47 | -30.59066 | 138.43013 | 19214 ft | 211 kts | 133° |
| 2026-05-04 10:47 | -30.59993 | 138.44323 | 19211 ft | 207 kts | 144° |
| 2026-05-04 10:49 | -30.67977 | 138.51265 | 19218 ft | 206 kts | 152° |
| 2026-05-04 10:49 | -30.69128 | 138.52267 | 19211 ft | 207 kts | 152° |
| 2026-05-04 10:50 | -30.70283 | 138.53271 | 19216 ft | 207 kts | 152° |
| 2026-05-04 10:51 | -30.78418 | 138.60359 | 19219 ft | 209 kts | 152° |
| 2026-05-04 10:52 | -30.79581 | 138.61374 | 19219 ft | 210 kts | 152° |
| 2026-05-04 10:52 | -30.80737 | 138.62382 | 19222 ft | 210 kts | 152° |
| 2026-05-04 10:52 | -30.81910 | 138.63406 | 19216 ft | 211 kts | 152° |
| 2026-05-04 10:54 | -30.90145 | 138.70604 | 19216 ft | 211 kts | 152° |
| 2026-05-04 10:54 | -30.91320 | 138.71633 | 19211 ft | 211 kts | 152° |
| 2026-05-04 10:56 | -30.99568 | 138.78859 | 19216 ft | 213 kts | 152° |
| 2026-05-04 10:56 | -31.00752 | 138.79897 | 19214 ft | 213 kts | 152° |
| 2026-05-04 10:56 | -31.01938 | 138.80938 | 19215 ft | 214 kts | 152° |
| 2026-05-04 10:57 | -31.03128 | 138.81983 | 19217 ft | 214 kts | 152° |
| 2026-05-04 10:57 | -31.04319 | 138.83028 | 19218 ft | 214 kts | 152° |
| 2026-05-04 10:57 | -31.05511 | 138.84076 | 19216 ft | 215 kts | 152° |
| 2026-05-04 10:57 | -31.06692 | 138.85114 | 19209 ft | 215 kts | 152° |
| 2026-05-04 10:58 | -31.07884 | 138.86163 | 19211 ft | 215 kts | 152° |
| 2026-05-04 10:58 | -31.09076 | 138.87209 | 19211 ft | 215 kts | 152° |
| 2026-05-04 10:58 | -31.10274 | 138.88263 | 19213 ft | 215 kts | 151° |
| 2026-05-04 10:58 | -31.11468 | 138.89314 | 19215 ft | 215 kts | 151° |
| 2026-05-04 10:59 | -31.12665 | 138.90366 | 19210 ft | 216 kts | 151° |
| 2026-05-04 10:59 | -31.13862 | 138.91421 | 19211 ft | 216 kts | 151° |
| 2026-05-04 10:59 | -31.15057 | 138.92474 | 19211 ft | 216 kts | 151° |
| 2026-05-04 10:59 | -31.16255 | 138.93529 | 19211 ft | 215 kts | 151° |
| 2026-05-04 11:00 | -31.17451 | 138.94582 | 19208 ft | 216 kts | 151° |
| 2026-05-04 11:01 | -31.25853 | 139.01997 | 19206 ft | 217 kts | 150° |
| 2026-05-04 11:02 | -31.27056 | 139.03060 | 19206 ft | 216 kts | 150° |
| 2026-05-04 11:02 | -31.28256 | 139.04128 | 19206 ft | 217 kts | 150° |
| 2026-05-04 11:05 | -31.43145 | 139.17309 | 19185 ft | 172 kts | 149° |
| 2026-05-04 11:06 | -31.44096 | 139.18154 | 19181 ft | 172 kts | 149° |
| 2026-05-04 11:06 | -31.45047 | 139.18998 | 19183 ft | 171 kts | 149° |
| 2026-05-04 11:06 | -31.45996 | 139.19841 | 19182 ft | 171 kts | 149° |
| 2026-05-04 11:06 | -31.46946 | 139.20685 | 19185 ft | 171 kts | 149° |
| 2026-05-04 11:08 | -31.53566 | 139.26573 | 19186 ft | 171 kts | 149° |
| 2026-05-04 11:10 | -31.60185 | 139.32470 | 19187 ft | 171 kts | 149° |
| 2026-05-04 11:12 | -31.66795 | 139.38370 | 19188 ft | 170 kts | 149° |
| 2026-05-04 11:12 | -31.67737 | 139.39212 | 19190 ft | 170 kts | 149° |
| 2026-05-04 11:12 | -31.68679 | 139.40054 | 19188 ft | 170 kts | 149° |
| 2026-05-04 11:12 | -31.69623 | 139.40897 | 19193 ft | 170 kts | 149° |
| 2026-05-04 11:13 | -31.70565 | 139.41740 | 19191 ft | 170 kts | 149° |
| 2026-05-04 11:13 | -31.71506 | 139.42582 | 19189 ft | 170 kts | 149° |
| 2026-05-04 11:13 | -31.72448 | 139.43424 | 19193 ft | 170 kts | 149° |
| 2026-05-04 11:13 | -31.73389 | 139.44266 | 19195 ft | 170 kts | 149° |
| 2026-05-04 11:14 | -31.76212 | 139.46795 | 19197 ft | 170 kts | 149° |
| 2026-05-04 11:16 | -31.82788 | 139.52691 | 19198 ft | 170 kts | 149° |
| 2026-05-04 11:16 | -31.83728 | 139.53534 | 19198 ft | 170 kts | 149° |
| 2026-05-04 11:16 | -31.84655 | 139.54366 | 19197 ft | 170 kts | 149° |
| 2026-05-04 11:17 | -31.85599 | 139.55214 | 19196 ft | 170 kts | 149° |
| 2026-05-04 11:17 | -31.86541 | 139.56060 | 19200 ft | 170 kts | 149° |
| 2026-05-04 11:19 | -31.93117 | 139.61973 | 19201 ft | 170 kts | 149° |
| 2026-05-04 11:19 | -31.94055 | 139.62818 | 19200 ft | 170 kts | 149° |
| 2026-05-04 11:19 | -31.94992 | 139.63661 | 19197 ft | 170 kts | 149° |
| 2026-05-04 11:19 | -31.95933 | 139.64508 | 19197 ft | 170 kts | 149° |
| 2026-05-04 11:20 | -31.96869 | 139.65352 | 19203 ft | 170 kts | 149° |
| 2026-05-04 11:20 | -31.97795 | 139.66186 | 19205 ft | 170 kts | 149° |
| 2026-05-04 11:20 | -31.98732 | 139.67031 | 19203 ft | 170 kts | 149° |
| 2026-05-04 11:20 | -31.99670 | 139.67877 | 19205 ft | 170 kts | 149° |
| 2026-05-04 11:22 | -32.05917 | 139.73514 | 19203 ft | 170 kts | 149° |
| 2026-05-04 11:22 | -32.06854 | 139.74361 | 19202 ft | 170 kts | 149° |
| 2026-05-04 11:23 | -32.07793 | 139.75209 | 19200 ft | 170 kts | 149° |
| 2026-05-04 11:23 | -32.08729 | 139.76055 | 19201 ft | 169 kts | 149° |
| 2026-05-04 11:24 | -32.14342 | 139.81133 | 19203 ft | 169 kts | 149° |
| 2026-05-04 11:25 | -32.15265 | 139.81969 | 19204 ft | 169 kts | 149° |
| 2026-05-04 11:25 | -32.16198 | 139.82815 | 19202 ft | 169 kts | 149° |
| 2026-05-04 11:25 | -32.17143 | 139.83670 | 19205 ft | 169 kts | 149° |
| 2026-05-04 11:26 | -32.19001 | 139.85355 | 19206 ft | 170 kts | 149° |
| 2026-05-04 11:27 | -32.25544 | 139.91292 | 19206 ft | 169 kts | 149° |
| 2026-05-04 11:28 | -32.26480 | 139.92142 | 19201 ft | 169 kts | 149° |
| 2026-05-04 11:28 | -32.27414 | 139.92991 | 19204 ft | 169 kts | 149° |
| 2026-05-04 11:28 | -32.28339 | 139.93832 | 19204 ft | 170 kts | 149° |
| 2026-05-04 11:28 | -32.29274 | 139.94682 | 19203 ft | 169 kts | 149° |
| 2026-05-04 11:29 | -32.30207 | 139.95530 | 19200 ft | 169 kts | 149° |
| 2026-05-04 11:29 | -32.31140 | 139.96379 | 19201 ft | 169 kts | 149° |
| 2026-05-04 11:29 | -32.32074 | 139.97229 | 19204 ft | 169 kts | 149° |
| 2026-05-04 11:29 | -32.33008 | 139.98079 | 19201 ft | 169 kts | 149° |
| 2026-05-04 11:31 | -32.39536 | 140.04027 | 19205 ft | 169 kts | 149° |
| 2026-05-04 11:33 | -32.46044 | 140.09968 | 19205 ft | 169 kts | 150° |
| 2026-05-04 11:33 | -32.46975 | 140.10818 | 19208 ft | 169 kts | 150° |
| 2026-05-04 11:33 | -32.47907 | 140.11670 | 19202 ft | 169 kts | 149° |
| 2026-05-04 11:34 | -32.48840 | 140.12524 | 19204 ft | 169 kts | 150° |
| 2026-05-04 11:34 | -32.49773 | 140.13376 | 19203 ft | 169 kts | 149° |
| 2026-05-04 11:34 | -32.50703 | 140.14228 | 19202 ft | 169 kts | 149° |
| 2026-05-04 11:34 | -32.51635 | 140.15080 | 19202 ft | 169 kts | 150° |
| 2026-05-04 11:35 | -32.52563 | 140.15929 | 19206 ft | 169 kts | 149° |
| 2026-05-04 11:35 | -32.53495 | 140.16782 | 19205 ft | 169 kts | 149° |
| 2026-05-04 11:35 | -32.54425 | 140.17634 | 19202 ft | 169 kts | 149° |
| 2026-05-04 11:35 | -32.55357 | 140.18487 | 19203 ft | 169 kts | 149° |
| 2026-05-04 11:36 | -32.56294 | 140.19346 | 19200 ft | 170 kts | 149° |
| 2026-05-04 11:36 | -32.57224 | 140.20199 | 19203 ft | 169 kts | 149° |
| 2026-05-04 11:36 | -32.58157 | 140.21054 | 19203 ft | 169 kts | 149° |
| 2026-05-04 11:36 | -32.59087 | 140.21906 | 19200 ft | 169 kts | 149° |
| 2026-05-04 11:37 | -32.60020 | 140.22763 | 19201 ft | 169 kts | 149° |
| 2026-05-04 11:37 | -32.60952 | 140.23618 | 19202 ft | 169 kts | 149° |
| 2026-05-04 11:37 | -32.61884 | 140.24472 | 19202 ft | 169 kts | 149° |
| 2026-05-04 11:37 | -32.62816 | 140.25329 | 19199 ft | 169 kts | 149° |
| 2026-05-04 11:38 | -32.63747 | 140.26184 | 19200 ft | 169 kts | 149° |
| 2026-05-04 11:38 | -32.64681 | 140.27041 | 19198 ft | 169 kts | 149° |
| 2026-05-04 11:38 | -32.65613 | 140.27898 | 19198 ft | 169 kts | 149° |
| 2026-05-04 11:38 | -32.66545 | 140.28754 | 19196 ft | 169 kts | 149° |
| 2026-05-04 11:39 | -32.67465 | 140.29600 | 19197 ft | 169 kts | 149° |
| 2026-05-04 11:39 | -32.68396 | 140.30457 | 19197 ft | 169 kts | 149° |
| 2026-05-04 11:40 | -32.73982 | 140.35597 | 19196 ft | 169 kts | 149° |
| 2026-05-04 11:41 | -32.74912 | 140.36454 | 19198 ft | 169 kts | 149° |
| 2026-05-04 11:41 | -32.75844 | 140.37312 | 19197 ft | 169 kts | 149° |
| 2026-05-04 11:41 | -32.76777 | 140.38172 | 19194 ft | 169 kts | 149° |
| 2026-05-04 11:41 | -32.77694 | 140.39018 | 19197 ft | 169 kts | 149° |
| 2026-05-04 11:42 | -32.78634 | 140.39885 | 19199 ft | 169 kts | 150° |
| 2026-05-04 11:42 | -32.79551 | 140.40731 | 19198 ft | 169 kts | 149° |
| 2026-05-04 11:42 | -32.80479 | 140.41587 | 19198 ft | 169 kts | 149° |
| 2026-05-04 11:42 | -32.81408 | 140.42445 | 19195 ft | 169 kts | 149° |
| 2026-05-04 11:43 | -32.82336 | 140.43301 | 19198 ft | 169 kts | 150° |
| 2026-05-04 11:43 | -32.83264 | 140.44158 | 19198 ft | 169 kts | 150° |
| 2026-05-04 11:43 | -32.84192 | 140.45016 | 19197 ft | 169 kts | 150° |
| 2026-05-04 11:43 | -32.85122 | 140.45874 | 19197 ft | 169 kts | 149° |
| 2026-05-04 11:44 | -32.86049 | 140.46731 | 19198 ft | 169 kts | 150° |
| 2026-05-04 11:44 | -32.86979 | 140.47591 | 19200 ft | 169 kts | 150° |
| 2026-05-04 11:44 | -32.87905 | 140.48448 | 19194 ft | 169 kts | 149° |
| 2026-05-04 11:44 | -32.88831 | 140.49304 | 19195 ft | 169 kts | 150° |
| 2026-05-04 11:45 | -32.89756 | 140.50161 | 19193 ft | 169 kts | 150° |
| 2026-05-04 11:45 | -32.90684 | 140.51019 | 19194 ft | 169 kts | 150° |
| 2026-05-04 11:45 | -32.91599 | 140.51866 | 19196 ft | 169 kts | 150° |
| 2026-05-04 11:45 | -32.92527 | 140.52726 | 19194 ft | 169 kts | 150° |
| 2026-05-04 11:46 | -32.93452 | 140.53582 | 19196 ft | 169 kts | 150° |
| 2026-05-04 11:46 | -32.94379 | 140.54441 | 19191 ft | 169 kts | 150° |
| 2026-05-04 11:46 | -32.95307 | 140.55301 | 19192 ft | 169 kts | 150° |
| 2026-05-04 11:46 | -32.96233 | 140.56160 | 19191 ft | 169 kts | 150° |
| 2026-05-04 11:47 | -32.97159 | 140.57018 | 19194 ft | 169 kts | 150° |
| 2026-05-04 11:47 | -32.98086 | 140.57877 | 19195 ft | 169 kts | 150° |
| 2026-05-04 11:47 | -32.99014 | 140.58739 | 19194 ft | 169 kts | 150° |
| 2026-05-04 11:47 | -32.99941 | 140.59599 | 19193 ft | 169 kts | 150° |
| 2026-05-04 11:48 | -33.00868 | 140.60460 | 19193 ft | 169 kts | 150° |
| 2026-05-04 11:48 | -33.01795 | 140.61321 | 19194 ft | 169 kts | 150° |
| 2026-05-04 11:48 | -33.02724 | 140.62183 | 19191 ft | 169 kts | 150° |
| 2026-05-04 11:48 | -33.03639 | 140.63034 | 19192 ft | 169 kts | 150° |
| 2026-05-04 11:49 | -33.04567 | 140.63896 | 19193 ft | 169 kts | 150° |
| 2026-05-04 11:49 | -33.05494 | 140.64757 | 19193 ft | 169 kts | 150° |
| 2026-05-04 11:49 | -33.06421 | 140.65619 | 19189 ft | 169 kts | 150° |
| 2026-05-04 11:49 | -33.07352 | 140.66485 | 19189 ft | 169 kts | 150° |
| 2026-05-04 11:50 | -33.08278 | 140.67346 | 19192 ft | 169 kts | 150° |
| 2026-05-04 11:50 | -33.09205 | 140.68209 | 19191 ft | 169 kts | 150° |
| 2026-05-04 11:50 | -33.10131 | 140.69072 | 19190 ft | 169 kts | 150° |
| 2026-05-04 11:50 | -33.11059 | 140.69935 | 19191 ft | 169 kts | 150° |
| 2026-05-04 11:51 | -33.11987 | 140.70799 | 19188 ft | 169 kts | 150° |
| 2026-05-04 11:51 | -33.12915 | 140.71665 | 19190 ft | 169 kts | 150° |
| 2026-05-04 11:51 | -33.13844 | 140.72529 | 19192 ft | 169 kts | 150° |
| 2026-05-04 11:51 | -33.14760 | 140.73384 | 19186 ft | 169 kts | 150° |
| 2026-05-04 11:52 | -33.15688 | 140.74249 | 19188 ft | 169 kts | 150° |
| 2026-05-04 11:52 | -33.16616 | 140.75114 | 19188 ft | 169 kts | 150° |
| 2026-05-04 11:52 | -33.17545 | 140.75981 | 19188 ft | 169 kts | 150° |
| 2026-05-04 11:52 | -33.18473 | 140.76847 | 19187 ft | 169 kts | 150° |
| 2026-05-04 11:53 | -33.19400 | 140.77713 | 19187 ft | 169 kts | 150° |
| 2026-05-04 11:53 | -33.20329 | 140.78580 | 19186 ft | 169 kts | 150° |
| 2026-05-04 11:53 | -33.21257 | 140.79446 | 19180 ft | 169 kts | 150° |
| 2026-05-04 11:53 | -33.22184 | 140.80312 | 19186 ft | 169 kts | 150° |
| 2026-05-04 11:55 | -33.28664 | 140.86372 | 19178 ft | 169 kts | 150° |
| 2026-05-04 11:55 | -33.29592 | 140.87241 | 19183 ft | 169 kts | 150° |
| 2026-05-04 11:56 | -33.30519 | 140.88110 | 19179 ft | 169 kts | 150° |
| 2026-05-04 11:56 | -33.31447 | 140.88978 | 19185 ft | 169 kts | 150° |
| 2026-05-04 11:56 | -33.32375 | 140.89848 | 19184 ft | 169 kts | 150° |
| 2026-05-04 11:56 | -33.33292 | 140.90707 | 19186 ft | 170 kts | 150° |
| 2026-05-04 11:57 | -33.34221 | 140.91578 | 19186 ft | 170 kts | 150° |
| 2026-05-04 11:57 | -33.35153 | 140.92453 | 19187 ft | 170 kts | 150° |
| 2026-05-04 11:57 | -33.36082 | 140.93324 | 19181 ft | 169 kts | 150° |
| 2026-05-04 11:57 | -33.37011 | 140.94196 | 19187 ft | 169 kts | 150° |
| 2026-05-04 11:58 | -33.37937 | 140.95065 | 19182 ft | 169 kts | 150° |
| 2026-05-04 11:58 | -33.38865 | 140.95936 | 19183 ft | 169 kts | 151° |
| 2026-05-04 11:58 | -33.39792 | 140.96806 | 19174 ft | 169 kts | 151° |
| 2026-05-04 11:58 | -33.40719 | 140.97677 | 19186 ft | 170 kts | 151° |
| 2026-05-04 11:59 | -33.41649 | 140.98551 | 19175 ft | 170 kts | 151° |
| 2026-05-04 11:59 | -33.42579 | 140.99425 | 19181 ft | 170 kts | 150° |
| 2026-05-04 11:59 | -33.43506 | 141.00297 | 19186 ft | 170 kts | 151° |
| 2026-05-04 11:59 | -33.44435 | 141.01171 | 19181 ft | 170 kts | 151° |
| 2026-05-04 12:00 | -33.45364 | 141.02045 | 19182 ft | 170 kts | 151° |
| 2026-05-04 12:00 | -33.46281 | 141.02907 | 19185 ft | 170 kts | 151° |
| 2026-05-04 12:00 | -33.47209 | 141.03781 | 19184 ft | 170 kts | 151° |
| 2026-05-04 12:00 | -33.48136 | 141.04654 | 19182 ft | 170 kts | 151° |
| 2026-05-04 12:01 | -33.49067 | 141.05531 | 19182 ft | 170 kts | 151° |
| 2026-05-04 12:01 | -33.49996 | 141.06406 | 19182 ft | 170 kts | 151° |
| 2026-05-04 12:02 | -33.55572 | 141.11663 | 19177 ft | 170 kts | 151° |
| 2026-05-04 12:03 | -33.56500 | 141.12539 | 19180 ft | 170 kts | 151° |
| 2026-05-04 12:03 | -33.57426 | 141.13413 | 19177 ft | 169 kts | 151° |
| 2026-05-04 12:03 | -33.58353 | 141.14289 | 19174 ft | 169 kts | 151° |
| 2026-05-04 12:03 | -33.59278 | 141.15163 | 19174 ft | 169 kts | 152° |
| 2026-05-04 12:04 | -33.60195 | 141.16029 | 19175 ft | 169 kts | 151° |
| 2026-05-04 12:04 | -33.61121 | 141.16904 | 19178 ft | 169 kts | 151° |
| 2026-05-04 12:04 | -33.62047 | 141.17780 | 19178 ft | 169 kts | 151° |
| 2026-05-04 12:04 | -33.62972 | 141.18655 | 19168 ft | 169 kts | 152° |
| 2026-05-04 12:05 | -33.63896 | 141.19529 | 19179 ft | 169 kts | 152° |
| 2026-05-04 12:05 | -33.64820 | 141.20403 | 19177 ft | 169 kts | 152° |
| 2026-05-04 12:05 | -33.65744 | 141.21278 | 19179 ft | 169 kts | 152° |
| 2026-05-04 12:05 | -33.66670 | 141.22155 | 19179 ft | 169 kts | 152° |
| 2026-05-04 12:06 | -33.67581 | 141.23018 | 19180 ft | 169 kts | 152° |
| 2026-05-04 12:06 | -33.68504 | 141.23891 | 19178 ft | 169 kts | 152° |
| 2026-05-04 12:06 | -33.69426 | 141.24766 | 19180 ft | 169 kts | 152° |
| 2026-05-04 12:06 | -33.70361 | 141.25652 | 19178 ft | 169 kts | 152° |
| 2026-05-04 12:07 | -33.71284 | 141.26526 | 19180 ft | 169 kts | 152° |
| 2026-05-04 12:07 | -33.72194 | 141.27390 | 19180 ft | 169 kts | 152° |
| 2026-05-04 12:07 | -33.73118 | 141.28267 | 19178 ft | 169 kts | 152° |
| 2026-05-04 12:07 | -33.74041 | 141.29142 | 19176 ft | 169 kts | 152° |
| 2026-05-04 12:08 | -33.74962 | 141.30016 | 19176 ft | 169 kts | 152° |
| 2026-05-04 12:08 | -33.75882 | 141.30890 | 19178 ft | 169 kts | 152° |
| 2026-05-04 12:08 | -33.76804 | 141.31765 | 19176 ft | 169 kts | 152° |
| 2026-05-04 12:08 | -33.77725 | 141.32641 | 19175 ft | 169 kts | 152° |
| 2026-05-04 12:09 | -33.78335 | 141.33220 | 19176 ft | 169 kts | 152° |
| 2026-05-04 12:09 | -33.79255 | 141.34095 | 19172 ft | 168 kts | 152° |
| 2026-05-04 12:09 | -33.80174 | 141.34968 | 19177 ft | 168 kts | 152° |
| 2026-05-04 12:09 | -33.81093 | 141.35842 | 19173 ft | 168 kts | 152° |
| 2026-05-04 12:10 | -33.82012 | 141.36717 | 19172 ft | 169 kts | 152° |
| 2026-05-04 12:10 | -33.82932 | 141.37592 | 19176 ft | 168 kts | 152° |
| 2026-05-04 12:10 | -33.83850 | 141.38465 | 19175 ft | 168 kts | 152° |
| 2026-05-04 12:10 | -33.84769 | 141.39341 | 19177 ft | 168 kts | 152° |
| 2026-05-04 12:11 | -33.85686 | 141.40214 | 19176 ft | 168 kts | 152° |
| 2026-05-04 12:11 | -33.86607 | 141.41090 | 19175 ft | 169 kts | 152° |
| 2026-05-04 12:11 | -33.87529 | 141.41969 | 19172 ft | 169 kts | 152° |
| 2026-05-04 12:11 | -33.88449 | 141.42846 | 19173 ft | 169 kts | 153° |
| 2026-05-04 12:12 | -33.89369 | 141.43723 | 19175 ft | 168 kts | 153° |
| 2026-05-04 12:12 | -33.90288 | 141.44600 | 19168 ft | 169 kts | 153° |
| 2026-05-04 12:12 | -33.91208 | 141.45477 | 19169 ft | 169 kts | 153° |
| 2026-05-04 12:12 | -33.92128 | 141.46355 | 19169 ft | 169 kts | 153° |
| 2026-05-04 12:13 | -33.93047 | 141.47232 | 19169 ft | 169 kts | 153° |
| 2026-05-04 12:14 | -33.99452 | 141.53352 | 19167 ft | 168 kts | 153° |
| 2026-05-04 12:15 | -34.00368 | 141.54229 | 19166 ft | 168 kts | 153° |
| 2026-05-04 12:15 | -34.01285 | 141.55106 | 19167 ft | 168 kts | 153° |
| 2026-05-04 12:15 | -34.02203 | 141.55985 | 19167 ft | 168 kts | 153° |
| 2026-05-04 12:15 | -34.03108 | 141.56851 | 19166 ft | 168 kts | 153° |
| 2026-05-04 12:16 | -34.04025 | 141.57729 | 19169 ft | 168 kts | 153° |
| 2026-05-04 12:16 | -34.04943 | 141.58609 | 19170 ft | 168 kts | 153° |
| 2026-05-04 12:16 | -34.05860 | 141.59488 | 19167 ft | 168 kts | 153° |
| 2026-05-04 12:16 | -34.06777 | 141.60367 | 19169 ft | 168 kts | 153° |
| 2026-05-04 12:17 | -34.07694 | 141.61246 | 19167 ft | 168 kts | 153° |
| 2026-05-04 12:17 | -34.08610 | 141.62125 | 19164 ft | 168 kts | 153° |
| 2026-05-04 12:17 | -34.09527 | 141.63004 | 19165 ft | 168 kts | 153° |
| 2026-05-04 12:17 | -34.10444 | 141.63884 | 19165 ft | 168 kts | 153° |
| 2026-05-04 12:18 | -34.11357 | 141.64762 | 19165 ft | 168 kts | 153° |
| 2026-05-04 12:18 | -34.12272 | 141.65639 | 19169 ft | 168 kts | 153° |
| 2026-05-04 12:18 | -34.13186 | 141.66517 | 19169 ft | 168 kts | 153° |
| 2026-05-04 12:18 | -34.14098 | 141.67393 | 19167 ft | 168 kts | 153° |
| 2026-05-04 12:19 | -34.15010 | 141.68270 | 19168 ft | 168 kts | 153° |
| 2026-05-04 12:19 | -34.15922 | 141.69147 | 19169 ft | 168 kts | 153° |
| 2026-05-04 12:19 | -34.16834 | 141.70023 | 19164 ft | 167 kts | 153° |
| 2026-05-04 12:19 | -34.17746 | 141.70900 | 19165 ft | 168 kts | 153° |
| 2026-05-04 12:20 | -34.18659 | 141.71779 | 19166 ft | 168 kts | 153° |
| 2026-05-04 12:20 | -34.19560 | 141.72646 | 19168 ft | 168 kts | 153° |
| 2026-05-04 12:20 | -34.20472 | 141.73524 | 19166 ft | 168 kts | 154° |
| 2026-05-04 12:20 | -34.21385 | 141.74402 | 19165 ft | 168 kts | 153° |
| 2026-05-04 12:21 | -34.22296 | 141.75280 | 19167 ft | 168 kts | 154° |
| 2026-05-04 12:21 | -34.23206 | 141.76158 | 19164 ft | 167 kts | 153° |
| 2026-05-04 12:21 | -34.24117 | 141.77036 | 19165 ft | 167 kts | 154° |
| 2026-05-04 12:21 | -34.25025 | 141.77912 | 19161 ft | 167 kts | 154° |
| 2026-05-04 12:22 | -34.25934 | 141.78787 | 19162 ft | 167 kts | 154° |
| 2026-05-04 12:22 | -34.26843 | 141.79664 | 19162 ft | 167 kts | 154° |
| 2026-05-04 12:22 | -34.27753 | 141.80542 | 19162 ft | 167 kts | 154° |
| 2026-05-04 12:22 | -34.28659 | 141.81416 | 19163 ft | 167 kts | 154° |
| 2026-05-04 12:23 | -34.29569 | 141.82294 | 19162 ft | 167 kts | 154° |
| 2026-05-04 12:23 | -34.30477 | 141.83172 | 19163 ft | 167 kts | 154° |
| 2026-05-04 12:23 | -34.31386 | 141.84050 | 19159 ft | 167 kts | 154° |
| 2026-05-04 12:23 | -34.32294 | 141.84927 | 19161 ft | 167 kts | 154° |
| 2026-05-04 12:24 | -34.33202 | 141.85805 | 19163 ft | 167 kts | 154° |
| 2026-05-04 12:24 | -34.34111 | 141.86683 | 19160 ft | 167 kts | 154° |
| 2026-05-04 12:24 | -34.35019 | 141.87560 | 19163 ft | 167 kts | 154° |
| 2026-05-04 12:24 | -34.35916 | 141.88429 | 19164 ft | 167 kts | 154° |
| 2026-05-04 12:25 | -34.36824 | 141.89307 | 19159 ft | 167 kts | 154° |
| 2026-05-04 12:25 | -34.37731 | 141.90186 | 19162 ft | 167 kts | 154° |
| 2026-05-04 12:25 | -34.38640 | 141.91066 | 19158 ft | 167 kts | 154° |
| 2026-05-04 12:25 | -34.39549 | 141.91946 | 19160 ft | 167 kts | 154° |
| 2026-05-04 12:26 | -34.40457 | 141.92825 | 19160 ft | 167 kts | 154° |
| 2026-05-04 12:26 | -34.41366 | 141.93706 | 19160 ft | 167 kts | 154° |
| 2026-05-04 12:26 | -34.42276 | 141.94588 | 19157 ft | 168 kts | 154° |
| 2026-05-04 12:26 | -34.43186 | 141.95470 | 19159 ft | 167 kts | 154° |
| 2026-05-04 12:27 | -34.44094 | 141.96351 | 19162 ft | 167 kts | 154° |
| 2026-05-04 12:27 | -34.45004 | 141.97234 | 19160 ft | 167 kts | 154° |
| 2026-05-04 12:27 | -34.45912 | 141.98115 | 19160 ft | 167 kts | 154° |
| 2026-05-04 12:27 | -34.46821 | 141.98997 | 19158 ft | 167 kts | 154° |
| 2026-05-04 12:28 | -34.47728 | 141.99878 | 19160 ft | 167 kts | 154° |
| 2026-05-04 12:28 | -34.48635 | 142.00759 | 19156 ft | 167 kts | 154° |
| 2026-05-04 12:28 | -34.49544 | 142.01642 | 19154 ft | 167 kts | 154° |
| 2026-05-04 12:28 | -34.50441 | 142.02513 | 19156 ft | 167 kts | 154° |
| 2026-05-04 12:29 | -34.51350 | 142.03397 | 19157 ft | 167 kts | 154° |
| 2026-05-04 12:29 | -34.52258 | 142.04280 | 19156 ft | 167 kts | 154° |
| 2026-05-04 12:29 | -34.53167 | 142.05164 | 19156 ft | 167 kts | 154° |
| 2026-05-04 12:29 | -34.54074 | 142.06046 | 19155 ft | 167 kts | 154° |
| 2026-05-04 12:30 | -34.54981 | 142.06929 | 19155 ft | 167 kts | 154° |
| 2026-05-04 12:30 | -34.55890 | 142.07814 | 19154 ft | 167 kts | 154° |
| 2026-05-04 12:30 | -34.56799 | 142.08698 | 19154 ft | 168 kts | 154° |
| 2026-05-04 12:30 | -34.57707 | 142.09584 | 19156 ft | 167 kts | 154° |
| 2026-05-04 12:31 | -34.58615 | 142.10468 | 19154 ft | 167 kts | 155° |
| 2026-05-04 12:31 | -34.59521 | 142.11350 | 19152 ft | 167 kts | 155° |
| 2026-05-04 12:31 | -34.60428 | 142.12235 | 19151 ft | 167 kts | 155° |
| 2026-05-04 12:31 | -34.61334 | 142.13119 | 19147 ft | 167 kts | 155° |
| 2026-05-04 12:32 | -34.62239 | 142.14001 | 19154 ft | 167 kts | 155° |
| 2026-05-04 12:32 | -34.64048 | 142.15766 | 19151 ft | 167 kts | 155° |
| 2026-05-04 12:32 | -34.64953 | 142.16650 | 19155 ft | 167 kts | 155° |
| 2026-05-04 12:33 | -34.65843 | 142.17519 | 19150 ft | 167 kts | 155° |
| 2026-05-04 12:33 | -34.66761 | 142.18415 | 19151 ft | 167 kts | 155° |
| 2026-05-04 12:33 | -34.67657 | 142.19291 | 19149 ft | 167 kts | 155° |
| 2026-05-04 12:33 | -34.68565 | 142.20178 | 19147 ft | 167 kts | 155° |
| 2026-05-04 12:34 | -34.69469 | 142.21062 | 19151 ft | 167 kts | 155° |
| 2026-05-04 12:34 | -34.70376 | 142.21949 | 19152 ft | 167 kts | 155° |
| 2026-05-04 12:34 | -34.71284 | 142.22838 | 19150 ft | 167 kts | 155° |
| 2026-05-04 12:34 | -34.72191 | 142.23725 | 19150 ft | 167 kts | 155° |
| 2026-05-04 12:35 | -34.73098 | 142.24613 | 19155 ft | 167 kts | 155° |
| 2026-05-04 12:35 | -34.74005 | 142.25501 | 19153 ft | 168 kts | 155° |
| 2026-05-04 12:35 | -34.74912 | 142.26390 | 19154 ft | 167 kts | 155° |
| 2026-05-04 12:35 | -34.75815 | 142.27274 | 19156 ft | 167 kts | 155° |
| 2026-05-04 12:36 | -34.76725 | 142.28165 | 19154 ft | 167 kts | 155° |
| 2026-05-04 12:36 | -34.77631 | 142.29053 | 19154 ft | 167 kts | 155° |
| 2026-05-04 12:36 | -34.78538 | 142.29943 | 19149 ft | 167 kts | 155° |
| 2026-05-04 12:36 | -34.79448 | 142.30835 | 19151 ft | 167 kts | 155° |
| 2026-05-04 12:37 | -34.80355 | 142.31726 | 19148 ft | 167 kts | 155° |
| 2026-05-04 12:37 | -34.81262 | 142.32615 | 19152 ft | 168 kts | 155° |
| 2026-05-04 12:37 | -34.82169 | 142.33506 | 19149 ft | 168 kts | 155° |
| 2026-05-04 12:37 | -34.83066 | 142.34387 | 19151 ft | 167 kts | 155° |
| 2026-05-04 12:38 | -34.83971 | 142.35276 | 19147 ft | 167 kts | 155° |
| 2026-05-04 12:38 | -34.84877 | 142.36166 | 19149 ft | 167 kts | 155° |
| 2026-05-04 12:38 | -34.85782 | 142.37055 | 19151 ft | 167 kts | 155° |
| 2026-05-04 12:38 | -34.86686 | 142.37944 | 19150 ft | 167 kts | 155° |
| 2026-05-04 12:39 | -34.87591 | 142.38834 | 19146 ft | 167 kts | 155° |
| 2026-05-04 12:39 | -34.88494 | 142.39723 | 19147 ft | 167 kts | 155° |
| 2026-05-04 12:39 | -34.89399 | 142.40613 | 19146 ft | 167 kts | 155° |
| 2026-05-04 12:39 | -34.90304 | 142.41503 | 19147 ft | 167 kts | 155° |
| 2026-05-04 12:40 | -34.91206 | 142.42391 | 19147 ft | 167 kts | 155° |
| 2026-05-04 12:40 | -34.92108 | 142.43279 | 19147 ft | 167 kts | 155° |
| 2026-05-04 12:40 | -34.93014 | 142.44172 | 19148 ft | 167 kts | 155° |
| 2026-05-04 12:40 | -34.93918 | 142.45063 | 19144 ft | 167 kts | 155° |
| 2026-05-04 12:41 | -34.94823 | 142.45954 | 19145 ft | 167 kts | 155° |
| 2026-05-04 12:41 | -34.95728 | 142.46847 | 19142 ft | 167 kts | 155° |
| 2026-05-04 12:41 | -34.96635 | 142.47741 | 19144 ft | 167 kts | 155° |
| 2026-05-04 12:41 | -34.97539 | 142.48634 | 19147 ft | 167 kts | 155° |
| 2026-05-04 12:42 | -34.98431 | 142.49514 | 19146 ft | 167 kts | 155° |
| 2026-05-04 12:42 | -34.99335 | 142.50406 | 19144 ft | 167 kts | 155° |
| 2026-05-04 12:42 | -35.00244 | 142.51303 | 19142 ft | 167 kts | 155° |
| 2026-05-04 12:42 | -35.01149 | 142.52197 | 19142 ft | 168 kts | 155° |
| 2026-05-04 12:43 | -35.02054 | 142.53091 | 19141 ft | 167 kts | 155° |
| 2026-05-04 12:43 | -35.02960 | 142.53987 | 19143 ft | 167 kts | 155° |
| 2026-05-04 12:43 | -35.03863 | 142.54879 | 19143 ft | 167 kts | 155° |
| 2026-05-04 12:43 | -35.04766 | 142.55772 | 19144 ft | 167 kts | 155° |
| 2026-05-04 12:44 | -35.05669 | 142.56666 | 19144 ft | 167 kts | 155° |
| 2026-05-04 12:44 | -35.06575 | 142.57562 | 19142 ft | 167 kts | 155° |
| 2026-05-04 12:44 | -35.07482 | 142.58460 | 19142 ft | 167 kts | 155° |
| 2026-05-04 12:44 | -35.08385 | 142.59354 | 19141 ft | 167 kts | 155° |
| 2026-05-04 12:45 | -35.09291 | 142.60250 | 19144 ft | 168 kts | 155° |
| 2026-05-04 12:45 | -35.10197 | 142.61148 | 19141 ft | 168 kts | 155° |
| 2026-05-04 12:45 | -35.11093 | 142.62036 | 19140 ft | 168 kts | 155° |
| 2026-05-04 12:45 | -35.11999 | 142.62935 | 19140 ft | 168 kts | 155° |
| 2026-05-04 12:46 | -35.12906 | 142.63833 | 19140 ft | 168 kts | 155° |
| 2026-05-04 12:46 | -35.13813 | 142.64732 | 19138 ft | 168 kts | 155° |
| 2026-05-04 12:46 | -35.14720 | 142.65632 | 19139 ft | 168 kts | 155° |
| 2026-05-04 12:46 | -35.15626 | 142.66533 | 19142 ft | 168 kts | 155° |
| 2026-05-04 12:47 | -35.16534 | 142.67433 | 19139 ft | 168 kts | 155° |
| 2026-05-04 12:47 | -35.17442 | 142.68335 | 19139 ft | 168 kts | 155° |
| 2026-05-04 12:47 | -35.18347 | 142.69234 | 19138 ft | 168 kts | 155° |
| 2026-05-04 12:47 | -35.19251 | 142.70132 | 19141 ft | 167 kts | 155° |
| 2026-05-04 12:48 | -35.20155 | 142.71030 | 19138 ft | 167 kts | 156° |
| 2026-05-04 12:48 | -35.21059 | 142.71928 | 19143 ft | 168 kts | 155° |
| 2026-05-04 12:48 | -35.21964 | 142.72828 | 19137 ft | 168 kts | 156° |
| 2026-05-04 12:48 | -35.22869 | 142.73729 | 19138 ft | 168 kts | 156° |
| 2026-05-04 12:49 | -35.23762 | 142.74618 | 19138 ft | 168 kts | 156° |
| 2026-05-04 12:49 | -35.24669 | 142.75520 | 19138 ft | 168 kts | 156° |
| 2026-05-04 12:49 | -35.25574 | 142.76421 | 19137 ft | 168 kts | 155° |
| 2026-05-04 12:49 | -35.26479 | 142.77322 | 19138 ft | 168 kts | 156° |
| 2026-05-04 12:50 | -35.27383 | 142.78223 | 19135 ft | 168 kts | 155° |
| 2026-05-04 12:50 | -35.28287 | 142.79124 | 19136 ft | 168 kts | 156° |
| 2026-05-04 12:50 | -35.29194 | 142.80027 | 19135 ft | 168 kts | 156° |
| 2026-05-04 12:50 | -35.30098 | 142.80930 | 19136 ft | 168 kts | 156° |
| 2026-05-04 12:51 | -35.31003 | 142.81832 | 19129 ft | 168 kts | 156° |
| 2026-05-04 12:51 | -35.31910 | 142.82736 | 19129 ft | 168 kts | 156° |
| 2026-05-04 12:51 | -35.32814 | 142.83639 | 19133 ft | 168 kts | 156° |
| 2026-05-04 12:51 | -35.33721 | 142.84544 | 19132 ft | 168 kts | 156° |
| 2026-05-04 12:52 | -35.34625 | 142.85447 | 19133 ft | 168 kts | 156° |
| 2026-05-04 12:52 | -35.35518 | 142.86339 | 19136 ft | 168 kts | 156° |
| 2026-05-04 12:52 | -35.36422 | 142.87242 | 19132 ft | 168 kts | 156° |
| 2026-05-04 12:52 | -35.37325 | 142.88145 | 19132 ft | 168 kts | 156° |
| 2026-05-04 12:53 | -35.38229 | 142.89048 | 19131 ft | 168 kts | 156° |
| 2026-05-04 12:53 | -35.39134 | 142.89954 | 19131 ft | 168 kts | 156° |
| 2026-05-04 12:53 | -35.40040 | 142.90860 | 19134 ft | 168 kts | 156° |
| 2026-05-04 12:53 | -35.40950 | 142.91770 | 19134 ft | 168 kts | 156° |
| 2026-05-04 12:54 | -35.41857 | 142.92679 | 19132 ft | 168 kts | 156° |
| 2026-05-04 12:54 | -35.42764 | 142.93587 | 19129 ft | 168 kts | 156° |
| 2026-05-04 12:54 | -35.43365 | 142.94188 | 19129 ft | 168 kts | 156° |
| 2026-05-04 12:54 | -35.44273 | 142.95098 | 19129 ft | 168 kts | 156° |
| 2026-05-04 12:55 | -35.45473 | 142.96300 | 19131 ft | 168 kts | 156° |
| 2026-05-04 12:55 | -35.46380 | 142.97210 | 19132 ft | 168 kts | 156° |
| 2026-05-04 12:55 | -35.47284 | 142.98116 | 19128 ft | 168 kts | 156° |
| 2026-05-04 12:55 | -35.48190 | 142.99025 | 19126 ft | 168 kts | 156° |
| 2026-05-04 12:56 | -35.48802 | 142.99639 | 19129 ft | 168 kts | 156° |
| 2026-05-04 12:56 | -35.49707 | 143.00546 | 19129 ft | 168 kts | 156° |
| 2026-05-04 12:56 | -35.50599 | 143.01443 | 19124 ft | 168 kts | 156° |
| 2026-05-04 12:56 | -35.51504 | 143.02351 | 19128 ft | 168 kts | 156° |
| 2026-05-04 12:57 | -35.52413 | 143.03264 | 19125 ft | 168 kts | 156° |
| 2026-05-04 12:57 | -35.53318 | 143.04173 | 19125 ft | 168 kts | 156° |
| 2026-05-04 12:57 | -35.54222 | 143.05082 | 19126 ft | 168 kts | 156° |
| 2026-05-04 12:57 | -35.55126 | 143.05991 | 19124 ft | 168 kts | 156° |
| 2026-05-04 12:58 | -35.56031 | 143.06901 | 19125 ft | 168 kts | 156° |
| 2026-05-04 12:58 | -35.56939 | 143.07814 | 19125 ft | 168 kts | 156° |
| 2026-05-04 12:58 | -35.57842 | 143.08724 | 19125 ft | 168 kts | 156° |
| 2026-05-04 12:58 | -35.58746 | 143.09634 | 19123 ft | 168 kts | 156° |
| 2026-05-04 12:59 | -35.59649 | 143.10542 | 19124 ft | 168 kts | 156° |
| 2026-05-04 12:59 | -35.60551 | 143.11451 | 19123 ft | 168 kts | 156° |
| 2026-05-04 12:59 | -35.61455 | 143.12361 | 19124 ft | 168 kts | 156° |
| 2026-05-04 12:59 | -35.62348 | 143.13261 | 19123 ft | 168 kts | 156° |
| 2026-05-04 13:00 | -35.63251 | 143.14172 | 19125 ft | 168 kts | 156° |
| 2026-05-04 13:00 | -35.64152 | 143.15081 | 19122 ft | 168 kts | 156° |
| 2026-05-04 13:00 | -35.65055 | 143.15991 | 19121 ft | 168 kts | 156° |
| 2026-05-04 13:00 | -35.65958 | 143.16902 | 19124 ft | 168 kts | 156° |
| 2026-05-04 13:01 | -35.66859 | 143.17812 | 19125 ft | 168 kts | 156° |
| 2026-05-04 13:01 | -35.67761 | 143.18722 | 19116 ft | 168 kts | 156° |
| 2026-05-04 13:01 | -35.68663 | 143.19633 | 19120 ft | 168 kts | 156° |
| 2026-05-04 13:01 | -35.69563 | 143.20543 | 19119 ft | 167 kts | 156° |
| 2026-05-04 13:02 | -35.70464 | 143.21453 | 19115 ft | 168 kts | 156° |
| 2026-05-04 13:02 | -35.71366 | 143.22364 | 19113 ft | 168 kts | 156° |
| 2026-05-04 13:02 | -35.72266 | 143.23275 | 19116 ft | 167 kts | 156° |
| 2026-05-04 13:02 | -35.73166 | 143.24186 | 19115 ft | 167 kts | 156° |
| 2026-05-04 13:03 | -35.74068 | 143.25097 | 19119 ft | 167 kts | 156° |
| 2026-05-04 13:03 | -35.74958 | 143.25998 | 19114 ft | 168 kts | 156° |
| 2026-05-04 13:03 | -35.75872 | 143.26923 | 19115 ft | 168 kts | 156° |
| 2026-05-04 13:03 | -35.76773 | 143.27836 | 19118 ft | 168 kts | 156° |
| 2026-05-04 13:04 | -35.77676 | 143.28750 | 19116 ft | 168 kts | 156° |
| 2026-05-04 13:04 | -35.78578 | 143.29665 | 19117 ft | 168 kts | 156° |
| 2026-05-04 13:04 | -35.79481 | 143.30580 | 19117 ft | 168 kts | 156° |
| 2026-05-04 13:04 | -35.80387 | 143.31498 | 19117 ft | 168 kts | 156° |
| 2026-05-04 13:05 | -35.81277 | 143.32401 | 19114 ft | 168 kts | 156° |
| 2026-05-04 13:05 | -35.82184 | 143.33321 | 19115 ft | 169 kts | 156° |
| 2026-05-04 13:05 | -35.83089 | 143.34240 | 19117 ft | 169 kts | 156° |
| 2026-05-04 13:05 | -35.83996 | 143.35160 | 19115 ft | 169 kts | 156° |
| 2026-05-04 13:06 | -35.84904 | 143.36082 | 19116 ft | 169 kts | 156° |
| 2026-05-04 13:06 | -35.85811 | 143.37004 | 19114 ft | 169 kts | 156° |
| 2026-05-04 13:06 | -35.86717 | 143.37925 | 19115 ft | 169 kts | 156° |
| 2026-05-04 13:06 | -35.87624 | 143.38847 | 19113 ft | 169 kts | 156° |
| 2026-05-04 13:07 | -35.88532 | 143.39769 | 19115 ft | 169 kts | 156° |
| 2026-05-04 13:07 | -35.89440 | 143.40693 | 19111 ft | 169 kts | 156° |
| 2026-05-04 13:07 | -35.90348 | 143.41616 | 19112 ft | 169 kts | 156° |
| 2026-05-04 13:07 | -35.91248 | 143.42532 | 19112 ft | 169 kts | 156° |
| 2026-05-04 13:08 | -35.92158 | 143.43458 | 19111 ft | 170 kts | 156° |
| 2026-05-04 13:08 | -35.93068 | 143.44386 | 19113 ft | 170 kts | 156° |
| 2026-05-04 13:08 | -35.93981 | 143.45315 | 19111 ft | 170 kts | 156° |
| 2026-05-04 13:08 | -35.94891 | 143.46243 | 19113 ft | 170 kts | 156° |
| 2026-05-04 13:09 | -35.95804 | 143.47173 | 19107 ft | 170 kts | 156° |
| 2026-05-04 13:09 | -35.96716 | 143.48103 | 19109 ft | 170 kts | 156° |
| 2026-05-04 13:09 | -35.97629 | 143.49033 | 19103 ft | 170 kts | 156° |
| 2026-05-04 13:09 | -35.98542 | 143.49965 | 19103 ft | 170 kts | 156° |
| 2026-05-04 13:10 | -35.99456 | 143.50898 | 19110 ft | 170 kts | 156° |
| 2026-05-04 13:10 | -36.00370 | 143.51831 | 19109 ft | 171 kts | 156° |
| 2026-05-04 13:10 | -36.01287 | 143.52766 | 19109 ft | 171 kts | 155° |
| 2026-05-04 13:10 | -36.02196 | 143.53694 | 19106 ft | 171 kts | 155° |
| 2026-05-04 13:11 | -36.03113 | 143.54633 | 19108 ft | 171 kts | 155° |
| 2026-05-04 13:11 | -36.04032 | 143.55572 | 19105 ft | 172 kts | 155° |
| 2026-05-04 13:11 | -36.04953 | 143.56514 | 19101 ft | 172 kts | 155° |
| 2026-05-04 13:11 | -36.05875 | 143.57457 | 19110 ft | 172 kts | 155° |
| 2026-05-04 13:12 | -36.06799 | 143.58401 | 19103 ft | 172 kts | 155° |
| 2026-05-04 13:12 | -36.07723 | 143.59347 | 19100 ft | 172 kts | 155° |
| 2026-05-04 13:12 | -36.08647 | 143.60293 | 19106 ft | 172 kts | 155° |
| 2026-05-04 13:12 | -36.09571 | 143.61239 | 19103 ft | 173 kts | 155° |
| 2026-05-04 13:13 | -36.10498 | 143.62189 | 19103 ft | 173 kts | 155° |
| 2026-05-04 13:13 | -36.11425 | 143.63138 | 19101 ft | 173 kts | 155° |
| 2026-05-04 13:13 | -36.12340 | 143.64076 | 19104 ft | 173 kts | 155° |
| 2026-05-04 13:13 | -36.13269 | 143.65028 | 19099 ft | 174 kts | 155° |
| 2026-05-04 13:14 | -36.14197 | 143.65981 | 19099 ft | 174 kts | 155° |
| 2026-05-04 13:14 | -36.15130 | 143.66938 | 19100 ft | 174 kts | 155° |
| 2026-05-04 13:14 | -36.16064 | 143.67895 | 19103 ft | 174 kts | 155° |
| 2026-05-04 13:14 | -36.16994 | 143.68851 | 19099 ft | 174 kts | 155° |
| 2026-05-04 13:15 | -36.17928 | 143.69810 | 19098 ft | 174 kts | 155° |
| 2026-05-04 13:15 | -36.18865 | 143.70772 | 19100 ft | 175 kts | 155° |
| 2026-05-04 13:15 | -36.19799 | 143.71733 | 19101 ft | 175 kts | 154° |
| 2026-05-04 13:15 | -36.20736 | 143.72695 | 19101 ft | 175 kts | 154° |
| 2026-05-04 13:16 | -36.21673 | 143.73659 | 19099 ft | 175 kts | 154° |
| 2026-05-04 13:16 | -36.22613 | 143.74626 | 19098 ft | 175 kts | 155° |
| 2026-05-04 13:16 | -36.23540 | 143.75579 | 19098 ft | 175 kts | 154° |
| 2026-05-04 13:16 | -36.24478 | 143.76544 | 19096 ft | 176 kts | 154° |
| 2026-05-04 13:17 | -36.25418 | 143.77513 | 19101 ft | 176 kts | 154° |
| 2026-05-04 13:17 | -36.26360 | 143.78482 | 19094 ft | 176 kts | 154° |
| 2026-05-04 13:17 | -36.27303 | 143.79454 | 19098 ft | 176 kts | 154° |
| 2026-05-04 13:17 | -36.28246 | 143.80427 | 19095 ft | 176 kts | 154° |
| 2026-05-04 13:18 | -36.29190 | 143.81400 | 19094 ft | 176 kts | 154° |
| 2026-05-04 13:18 | -36.30135 | 143.82373 | 19096 ft | 177 kts | 154° |
| 2026-05-04 13:18 | -36.31081 | 143.83350 | 19096 ft | 177 kts | 154° |
| 2026-05-04 13:18 | -36.32029 | 143.84328 | 19094 ft | 177 kts | 154° |
| 2026-05-04 13:19 | -36.32979 | 143.85308 | 19094 ft | 178 kts | 154° |
| 2026-05-04 13:19 | -36.33929 | 143.86289 | 19093 ft | 178 kts | 154° |
| 2026-05-04 13:19 | -36.34881 | 143.87273 | 19094 ft | 178 kts | 154° |
| 2026-05-04 13:19 | -36.35821 | 143.88245 | 19092 ft | 178 kts | 154° |
| 2026-05-04 13:20 | -36.36776 | 143.89230 | 19090 ft | 178 kts | 153° |
| 2026-05-04 13:20 | -36.37730 | 143.90218 | 19091 ft | 179 kts | 153° |
| 2026-05-04 13:20 | -36.38690 | 143.91210 | 19090 ft | 179 kts | 153° |
| 2026-05-04 13:20 | -36.39646 | 143.92199 | 19092 ft | 179 kts | 153° |
| 2026-05-04 13:21 | -36.40605 | 143.93193 | 19089 ft | 179 kts | 153° |
| 2026-05-04 13:21 | -36.41566 | 143.94187 | 19088 ft | 180 kts | 153° |
| 2026-05-04 13:21 | -36.42527 | 143.95182 | 19088 ft | 180 kts | 153° |
| 2026-05-04 13:21 | -36.43489 | 143.96179 | 19090 ft | 180 kts | 153° |
| 2026-05-04 13:22 | -36.44450 | 143.97175 | 19090 ft | 180 kts | 153° |
| 2026-05-04 13:22 | -36.45403 | 143.98162 | 19090 ft | 180 kts | 153° |
| 2026-05-04 13:22 | -36.46368 | 143.99163 | 19088 ft | 181 kts | 153° |
| 2026-05-04 13:22 | -36.47333 | 144.00165 | 19087 ft | 181 kts | 153° |
| 2026-05-04 13:23 | -36.48301 | 144.01169 | 19086 ft | 181 kts | 153° |
| 2026-05-04 13:23 | -36.49267 | 144.02173 | 19087 ft | 181 kts | 153° |
| 2026-05-04 13:23 | -36.50237 | 144.03180 | 19085 ft | 181 kts | 153° |
| 2026-05-04 13:23 | -36.51205 | 144.04184 | 19085 ft | 181 kts | 152° |
| 2026-05-04 13:24 | -36.52174 | 144.05192 | 19087 ft | 182 kts | 152° |
| 2026-05-04 13:24 | -36.53144 | 144.06200 | 19089 ft | 182 kts | 152° |
| 2026-05-04 13:24 | -36.54112 | 144.07207 | 19082 ft | 182 kts | 152° |
| 2026-05-04 13:25 | -36.56047 | 144.09220 | 19085 ft | 182 kts | 152° |
| 2026-05-04 13:25 | -36.57020 | 144.10232 | 19085 ft | 182 kts | 152° |
| 2026-05-04 13:25 | -36.57992 | 144.11245 | 19084 ft | 183 kts | 152° |
| 2026-05-04 13:25 | -36.58968 | 144.12261 | 19090 ft | 183 kts | 152° |
| 2026-05-04 13:26 | -36.59946 | 144.13280 | 19086 ft | 183 kts | 152° |
| 2026-05-04 13:26 | -36.60922 | 144.14298 | 19084 ft | 183 kts | 152° |
| 2026-05-04 13:26 | -36.61898 | 144.15315 | 19084 ft | 183 kts | 151° |
| 2026-05-04 13:26 | -36.62876 | 144.16335 | 19087 ft | 183 kts | 151° |
| 2026-05-04 13:27 | -36.63854 | 144.17355 | 19082 ft | 184 kts | 151° |
| 2026-05-04 13:27 | -36.64832 | 144.18377 | 19083 ft | 184 kts | 151° |
| 2026-05-04 13:27 | -36.65811 | 144.19399 | 19084 ft | 184 kts | 151° |
| 2026-05-04 13:27 | -36.66792 | 144.20423 | 19084 ft | 184 kts | 151° |
| 2026-05-04 13:28 | -36.67762 | 144.21437 | 19079 ft | 184 kts | 151° |
| 2026-05-04 13:28 | -36.68746 | 144.22465 | 19082 ft | 185 kts | 150° |
| 2026-05-04 13:28 | -36.69733 | 144.23497 | 19079 ft | 185 kts | 151° |
| 2026-05-04 13:28 | -36.70720 | 144.24530 | 19081 ft | 185 kts | 150° |
| 2026-05-04 13:29 | -36.71707 | 144.25562 | 19077 ft | 185 kts | 150° |
| 2026-05-04 13:29 | -36.72695 | 144.26597 | 19078 ft | 185 kts | 150° |
| 2026-05-04 13:29 | -36.73683 | 144.27630 | 19077 ft | 185 kts | 150° |
| 2026-05-04 13:29 | -36.74671 | 144.28665 | 19076 ft | 186 kts | 150° |
| 2026-05-04 13:30 | -36.75658 | 144.29700 | 19078 ft | 186 kts | 150° |
| 2026-05-04 13:30 | -36.76651 | 144.30740 | 19078 ft | 186 kts | 150° |
| 2026-05-04 13:30 | -36.77641 | 144.31778 | 19078 ft | 186 kts | 150° |
| 2026-05-04 13:30 | -36.78634 | 144.32820 | 19077 ft | 186 kts | 150° |
| 2026-05-04 13:31 | -36.79615 | 144.33850 | 19074 ft | 186 kts | 150° |
| 2026-05-04 13:31 | -36.80606 | 144.34889 | 19074 ft | 186 kts | 149° |
| 2026-05-04 13:31 | -36.81611 | 144.35944 | 19075 ft | 187 kts | 149° |
| 2026-05-04 13:31 | -36.82592 | 144.36975 | 19073 ft | 187 kts | 149° |
| 2026-05-04 13:32 | -36.83586 | 144.38019 | 19073 ft | 187 kts | 149° |
| 2026-05-04 13:32 | -36.84585 | 144.39070 | 19073 ft | 187 kts | 149° |
| 2026-05-04 13:32 | -36.85583 | 144.40118 | 19074 ft | 187 kts | 149° |
| 2026-05-04 13:32 | -36.86580 | 144.41167 | 19074 ft | 188 kts | 149° |
| 2026-05-04 13:33 | -36.87581 | 144.42219 | 19072 ft | 188 kts | 149° |
| 2026-05-04 13:33 | -36.88583 | 144.43274 | 19010 ft | 192 kts | 149° |
| 2026-05-04 13:33 | -36.89624 | 144.44364 | 18898 ft | 197 kts | 148° |
| 2026-05-04 13:33 | -36.90682 | 144.45480 | 18781 ft | 200 kts | 148° |
| 2026-05-04 13:34 | -36.91741 | 144.46598 | 18667 ft | 203 kts | 148° |
| 2026-05-04 13:34 | -36.92823 | 144.47740 | 18555 ft | 204 kts | 148° |
| 2026-05-04 13:34 | -36.93934 | 144.48906 | 18252 ft | 214 kts | 147° |
| 2026-05-04 13:34 | -36.95097 | 144.50126 | 17866 ft | 222 kts | 147° |
| 2026-05-04 13:35 | -36.96294 | 144.51392 | 17477 ft | 228 kts | 146° |
| 2026-05-04 13:35 | -36.98747 | 144.53992 | 16701 ft | 234 kts | 146° |
| 2026-05-04 13:35 | -36.99997 | 144.55311 | 16316 ft | 236 kts | 146° |
| 2026-05-04 13:36 | -37.01258 | 144.56645 | 15940 ft | 237 kts | 146° |
| 2026-05-04 13:36 | -37.02512 | 144.57975 | 15634 ft | 236 kts | 145° |
| 2026-05-04 13:36 | -37.03760 | 144.59298 | 15338 ft | 235 kts | 145° |
| 2026-05-04 13:36 | -37.05013 | 144.60621 | 15044 ft | 235 kts | 145° |
| 2026-05-04 13:37 | -37.06247 | 144.61925 | 14745 ft | 236 kts | 145° |
| 2026-05-04 13:37 | -37.07502 | 144.63258 | 14457 ft | 235 kts | 145° |
| 2026-05-04 13:37 | -37.08755 | 144.64586 | 14170 ft | 236 kts | 145° |
| 2026-05-04 13:37 | -37.09605 | 144.65486 | 13974 ft | 237 kts | 145° |
| 2026-05-04 13:38 | -37.11276 | 144.67257 | 13571 ft | 238 kts | 144° |
| 2026-05-04 13:38 | -37.12538 | 144.68598 | 13251 ft | 239 kts | 144° |
| 2026-05-04 13:38 | -37.13805 | 144.69944 | 12932 ft | 239 kts | 144° |
| 2026-05-04 13:38 | -37.15080 | 144.71298 | 12619 ft | 240 kts | 144° |
| 2026-05-04 13:39 | -37.16375 | 144.72620 | 12309 ft | 239 kts | 150° |
| 2026-05-04 13:39 | -37.17857 | 144.73433 | 11998 ft | 230 kts | 171° |
| 2026-05-04 13:39 | -37.19401 | 144.73845 | 11704 ft | 230 kts | 175° |
| 2026-05-04 13:39 | -37.20970 | 144.74238 | 11404 ft | 230 kts | 174° |
| 2026-05-04 13:40 | -37.22536 | 144.74669 | 11106 ft | 230 kts | 173° |
| 2026-05-04 13:40 | -37.24092 | 144.75105 | 10808 ft | 229 kts | 173° |
| 2026-05-04 13:40 | -37.25647 | 144.75517 | 10511 ft | 228 kts | 174° |
| 2026-05-04 13:40 | -37.27197 | 144.75917 | 10222 ft | 227 kts | 174° |
| 2026-05-04 13:41 | -37.28737 | 144.76325 | 9934 ft | 226 kts | 173° |
| 2026-05-04 13:41 | -37.30274 | 144.76741 | 9615 ft | 225 kts | 173° |
| 2026-05-04 13:41 | -37.31800 | 144.77152 | 9296 ft | 224 kts | 174° |
| 2026-05-04 13:42 | -37.34839 | 144.77880 | 8662 ft | 219 kts | 178° |
| 2026-05-04 13:42 | -37.36343 | 144.78105 | 8398 ft | 215 kts | 180° |
| 2026-05-04 13:42 | -37.37822 | 144.78321 | 8143 ft | 213 kts | 179° |
| 2026-05-04 13:42 | -37.39291 | 144.78580 | 7888 ft | 213 kts | 178° |
| 2026-05-04 13:43 | -37.40755 | 144.78858 | 7636 ft | 213 kts | 178° |
| 2026-05-04 13:43 | -37.42214 | 144.79122 | 7378 ft | 211 kts | 178° |
| 2026-05-04 13:43 | -37.43663 | 144.79374 | 7140 ft | 210 kts | 179° |
| 2026-05-04 13:43 | -37.45110 | 144.79620 | 6892 ft | 209 kts | 179° |
| 2026-05-04 13:44 | -37.46064 | 144.79674 | 6727 ft | 203 kts | 192° |
| 2026-05-04 13:44 | -37.47404 | 144.79247 | 6486 ft | 197 kts | 205° |
| 2026-05-04 13:44 | -37.49095 | 144.78453 | 6151 ft | 195 kts | 206° |
| 2026-05-04 13:44 | -37.50351 | 144.77866 | 6026 ft | 190 kts | 206° |
| 2026-05-04 13:45 | -37.51182 | 144.77484 | 6026 ft | 185 kts | 207° |
| 2026-05-04 13:45 | -37.52373 | 144.76922 | 6020 ft | 181 kts | 207° |
| 2026-05-04 13:45 | -37.53540 | 144.76361 | 6021 ft | 178 kts | 207° |
| 2026-05-04 13:45 | -37.54693 | 144.75811 | 6018 ft | 177 kts | 207° |
| 2026-05-04 13:46 | -37.55828 | 144.75272 | 6019 ft | 176 kts | 207° |
| 2026-05-04 13:46 | -37.56979 | 144.74728 | 6020 ft | 177 kts | 208° |
| 2026-05-04 13:46 | -37.58132 | 144.74179 | 6022 ft | 177 kts | 207° |
| 2026-05-04 13:46 | -37.59335 | 144.73790 | 6023 ft | 183 kts | 192° |
| 2026-05-04 13:47 | -37.60614 | 144.73767 | 6023 ft | 183 kts | 191° |
| 2026-05-04 13:47 | -37.61874 | 144.73638 | 6025 ft | 181 kts | 194° |
| 2026-05-04 13:47 | -37.63132 | 144.73514 | 6028 ft | 182 kts | 192° |
| 2026-05-04 13:47 | -37.64397 | 144.73429 | 6028 ft | 183 kts | 191° |
| 2026-05-04 13:48 | -37.65669 | 144.73350 | 6031 ft | 182 kts | 192° |
| 2026-05-04 13:48 | -37.66949 | 144.73255 | 5922 ft | 186 kts | 192° |
| 2026-05-04 13:48 | -37.68249 | 144.73159 | 5798 ft | 189 kts | 192° |
| 2026-05-04 13:48 | -37.69566 | 144.73066 | 5671 ft | 190 kts | 191° |
| 2026-05-04 13:49 | -37.70830 | 144.72986 | 5551 ft | 191 kts | 190° |
| 2026-05-04 13:49 | -37.72157 | 144.72967 | 5426 ft | 191 kts | 188° |
| 2026-05-04 13:49 | -37.73492 | 144.72958 | 5295 ft | 191 kts | 189° |
| 2026-05-04 13:49 | -37.74816 | 144.72939 | 5169 ft | 190 kts | 189° |
| 2026-05-04 13:50 | -37.76123 | 144.72914 | 5050 ft | 190 kts | 189° |
| 2026-05-04 13:50 | -37.77465 | 144.72897 | 4923 ft | 190 kts | 189° |
| 2026-05-04 13:50 | -37.78786 | 144.72882 | 4797 ft | 190 kts | 189° |
| 2026-05-04 13:50 | -37.80110 | 144.72948 | 4665 ft | 195 kts | 179° |
| 2026-05-04 13:51 | -37.81405 | 144.73578 | 4539 ft | 204 kts | 161° |
| 2026-05-04 13:51 | -37.82571 | 144.74652 | 4406 ft | 215 kts | 139° |
| 2026-05-04 13:51 | -37.83439 | 144.76196 | 4276 ft | 221 kts | 125° |
| 2026-05-04 13:51 | -37.84089 | 144.77968 | 4145 ft | 226 kts | 108° |
| 2026-05-04 13:52 | -37.83975 | 144.81932 | 3886 ft | 228 kts | 71° |
| 2026-05-04 13:52 | -37.83255 | 144.83677 | 3631 ft | 221 kts | 46° |
| 2026-05-04 13:52 | -37.82218 | 144.84992 | 3379 ft | 211 kts | 26° |
| 2026-05-04 13:53 | -37.80937 | 144.85783 | 3127 ft | 201 kts | 11° |
| 2026-05-04 13:53 | -37.79612 | 144.86076 | 2868 ft | 187 kts | 349° |
| 2026-05-04 13:53 | -37.78304 | 144.85995 | 2413 ft | 191 kts | 347° |
| 2026-05-04 13:54 | -37.75793 | 144.85512 | 1835 ft | 175 kts | 343° |
| 2026-05-04 13:54 | -37.74604 | 144.85306 | 1695 ft | 168 kts | 345° |
| 2026-05-04 13:54 | -37.72526 | 144.84874 | 1285 ft | 118 kts | 344° |
| 2026-05-04 13:55 | -37.71806 | 144.84744 | 1037 ft | 85 kts | 346° |
| 2026-05-04 13:55 | -37.70759 | 144.84507 | 710 ft | 77 kts | 346° |
| 2026-05-04 13:55 | -37.70201 | 144.84393 | 659 ft | 89 kts | 352° |
| 2026-05-04 13:56 | -37.69652 | 144.84300 | 564 ft | 71 kts | 349° |
| 2026-05-04 13:56 | -37.69177 | 144.84210 | 478 ft | 72 kts | 349° |
| 2026-05-04 13:56 | -37.68158 | 144.84018 | 352 ft | 52 kts | 347° |
| 2026-05-04 13:57 | -37.68082 | 144.83995 | 349 ft | 0 kts | 347° |